<?xml version="1.0" encoding="UTF-8" standalone="no" ?>
<gpx xmlns="http://www.topografix.com/GPX/1/1" xmlns:xsi="http://www.w3.org/2001/XMLSchema-instance" xsi:schemaLocation="http://www.topografix.com/GPX/1/1 http://www.topografix.com/GPX/1/1/gpx.xsd" version="1.1" creator="VisuGPX - https://www.visugpx.com">
  <metadata>
    <name>premiére randonnée d hiver</name>
    <desc><![CDATA[premiere randonnée d hiver un peu frisquet]]></desc>
  </metadata>
  <trk>
    <name><![CDATA[Tracé actuel: 13 DEC 2018 12:55]]></name>
    <trkseg>
      <trkpt lat="49.63459" lon="4.98043">
        <ele>215.47</ele>
        <time>2018-12-13T11:55:50Z</time>
      </trkpt>
      <trkpt lat="49.63458" lon="4.98044">
        <ele>211.15</ele>
        <time>2018-12-13T11:56:16Z</time>
      </trkpt>
      <trkpt lat="49.63459" lon="4.98048">
        <ele>209.7</ele>
        <time>2018-12-13T11:56:38Z</time>
      </trkpt>
      <trkpt lat="49.63456" lon="4.98042">
        <ele>197.69</ele>
        <time>2018-12-13T11:57:00Z</time>
      </trkpt>
      <trkpt lat="49.63454" lon="4.98043">
        <ele>184.23</ele>
        <time>2018-12-13T11:57:17Z</time>
      </trkpt>
      <trkpt lat="49.63459" lon="4.98054">
        <ele>182.79</ele>
        <time>2018-12-13T11:57:30Z</time>
      </trkpt>
      <trkpt lat="49.63468" lon="4.98069">
        <ele>180.38</ele>
        <time>2018-12-13T11:57:47Z</time>
      </trkpt>
      <trkpt lat="49.63471" lon="4.98074">
        <ele>180.38</ele>
        <time>2018-12-13T11:57:51Z</time>
      </trkpt>
      <trkpt lat="49.63479" lon="4.98088">
        <ele>177.98</ele>
        <time>2018-12-13T11:58:04Z</time>
      </trkpt>
      <trkpt lat="49.63485" lon="4.98107">
        <ele>178.46</ele>
        <time>2018-12-13T11:58:17Z</time>
      </trkpt>
      <trkpt lat="49.63485" lon="4.98108">
        <ele>178.46</ele>
        <time>2018-12-13T11:58:18Z</time>
      </trkpt>
      <trkpt lat="49.63494" lon="4.98127">
        <ele>179.9</ele>
        <time>2018-12-13T11:58:34Z</time>
      </trkpt>
      <trkpt lat="49.63495" lon="4.98134">
        <ele>180.38</ele>
        <time>2018-12-13T11:58:39Z</time>
      </trkpt>
      <trkpt lat="49.6349" lon="4.98143">
        <ele>181.83</ele>
        <time>2018-12-13T11:58:48Z</time>
      </trkpt>
      <trkpt lat="49.63485" lon="4.98152">
        <ele>183.27</ele>
        <time>2018-12-13T11:58:57Z</time>
      </trkpt>
      <trkpt lat="49.63483" lon="4.98159">
        <ele>184.71</ele>
        <time>2018-12-13T11:59:02Z</time>
      </trkpt>
      <trkpt lat="49.63478" lon="4.98181">
        <ele>188.56</ele>
        <time>2018-12-13T11:59:17Z</time>
      </trkpt>
      <trkpt lat="49.63472" lon="4.98199">
        <ele>187.59</ele>
        <time>2018-12-13T11:59:31Z</time>
      </trkpt>
      <trkpt lat="49.63462" lon="4.9822">
        <ele>189.52</ele>
        <time>2018-12-13T11:59:47Z</time>
      </trkpt>
      <trkpt lat="49.63453" lon="4.98235">
        <ele>190.96</ele>
        <time>2018-12-13T12:00:00Z</time>
      </trkpt>
      <trkpt lat="49.6345" lon="4.98242">
        <ele>192.4</ele>
        <time>2018-12-13T12:00:12Z</time>
      </trkpt>
      <trkpt lat="49.63437" lon="4.98258">
        <ele>195.28</ele>
        <time>2018-12-13T12:00:28Z</time>
      </trkpt>
      <trkpt lat="49.63424" lon="4.98275">
        <ele>196.25</ele>
        <time>2018-12-13T12:00:43Z</time>
      </trkpt>
      <trkpt lat="49.63413" lon="4.9829">
        <ele>198.17</ele>
        <time>2018-12-13T12:00:58Z</time>
      </trkpt>
      <trkpt lat="49.63402" lon="4.98301">
        <ele>200.09</ele>
        <time>2018-12-13T12:01:11Z</time>
      </trkpt>
      <trkpt lat="49.63389" lon="4.98312">
        <ele>200.09</ele>
        <time>2018-12-13T12:01:25Z</time>
      </trkpt>
      <trkpt lat="49.63375" lon="4.98323">
        <ele>202.01</ele>
        <time>2018-12-13T12:01:40Z</time>
      </trkpt>
      <trkpt lat="49.63364" lon="4.98331">
        <ele>202.49</ele>
        <time>2018-12-13T12:01:53Z</time>
      </trkpt>
      <trkpt lat="49.63348" lon="4.98346">
        <ele>205.86</ele>
        <time>2018-12-13T12:02:09Z</time>
      </trkpt>
      <trkpt lat="49.63332" lon="4.98352">
        <ele>208.26</ele>
        <time>2018-12-13T12:02:26Z</time>
      </trkpt>
      <trkpt lat="49.63322" lon="4.98349">
        <ele>210.19</ele>
        <time>2018-12-13T12:02:42Z</time>
      </trkpt>
      <trkpt lat="49.63321" lon="4.98348">
        <ele>210.19</ele>
        <time>2018-12-13T12:03:09Z</time>
      </trkpt>
      <trkpt lat="49.63302" lon="4.98347">
        <ele>211.15</ele>
        <time>2018-12-13T12:03:26Z</time>
      </trkpt>
      <trkpt lat="49.63286" lon="4.98344">
        <ele>212.59</ele>
        <time>2018-12-13T12:03:41Z</time>
      </trkpt>
      <trkpt lat="49.63275" lon="4.98344">
        <ele>212.59</ele>
        <time>2018-12-13T12:03:52Z</time>
      </trkpt>
      <trkpt lat="49.63263" lon="4.98345">
        <ele>213.55</ele>
        <time>2018-12-13T12:04:05Z</time>
      </trkpt>
      <trkpt lat="49.63253" lon="4.98345">
        <ele>214.03</ele>
        <time>2018-12-13T12:04:14Z</time>
      </trkpt>
      <trkpt lat="49.63241" lon="4.98341">
        <ele>215.47</ele>
        <time>2018-12-13T12:04:24Z</time>
      </trkpt>
      <trkpt lat="49.63226" lon="4.9834">
        <ele>218.36</ele>
        <time>2018-12-13T12:04:39Z</time>
      </trkpt>
      <trkpt lat="49.63219" lon="4.9834">
        <ele>217.4</ele>
        <time>2018-12-13T12:04:45Z</time>
      </trkpt>
      <trkpt lat="49.63208" lon="4.98338">
        <ele>218.84</ele>
        <time>2018-12-13T12:04:55Z</time>
      </trkpt>
      <trkpt lat="49.63195" lon="4.98341">
        <ele>217.88</ele>
        <time>2018-12-13T12:05:10Z</time>
      </trkpt>
      <trkpt lat="49.63189" lon="4.9834">
        <ele>217.4</ele>
        <time>2018-12-13T12:05:15Z</time>
      </trkpt>
      <trkpt lat="49.63186" lon="4.98339">
        <ele>216.91</ele>
        <time>2018-12-13T12:05:17Z</time>
      </trkpt>
      <trkpt lat="49.63168" lon="4.98336">
        <ele>216.43</ele>
        <time>2018-12-13T12:05:34Z</time>
      </trkpt>
      <trkpt lat="49.63165" lon="4.98336">
        <ele>216.43</ele>
        <time>2018-12-13T12:05:37Z</time>
      </trkpt>
      <trkpt lat="49.63161" lon="4.98335">
        <ele>216.43</ele>
        <time>2018-12-13T12:05:41Z</time>
      </trkpt>
      <trkpt lat="49.63155" lon="4.98335">
        <ele>216.43</ele>
        <time>2018-12-13T12:05:47Z</time>
      </trkpt>
      <trkpt lat="49.63152" lon="4.98336">
        <ele>216.43</ele>
        <time>2018-12-13T12:05:50Z</time>
      </trkpt>
      <trkpt lat="49.63142" lon="4.98335">
        <ele>215.95</ele>
        <time>2018-12-13T12:05:58Z</time>
      </trkpt>
      <trkpt lat="49.63139" lon="4.98333">
        <ele>215.95</ele>
        <time>2018-12-13T12:06:01Z</time>
      </trkpt>
      <trkpt lat="49.63127" lon="4.98334">
        <ele>215.47</ele>
        <time>2018-12-13T12:06:14Z</time>
      </trkpt>
      <trkpt lat="49.63113" lon="4.98333">
        <ele>216.91</ele>
        <time>2018-12-13T12:06:28Z</time>
      </trkpt>
      <trkpt lat="49.63098" lon="4.98332">
        <ele>217.88</ele>
        <time>2018-12-13T12:06:42Z</time>
      </trkpt>
      <trkpt lat="49.63082" lon="4.98328">
        <ele>220.76</ele>
        <time>2018-12-13T12:06:57Z</time>
      </trkpt>
      <trkpt lat="49.63065" lon="4.98327">
        <ele>218.84</ele>
        <time>2018-12-13T12:07:12Z</time>
      </trkpt>
      <trkpt lat="49.63063" lon="4.98327">
        <ele>218.84</ele>
        <time>2018-12-13T12:07:15Z</time>
      </trkpt>
      <trkpt lat="49.6306" lon="4.98326">
        <ele>219.32</ele>
        <time>2018-12-13T12:07:18Z</time>
      </trkpt>
      <trkpt lat="49.63043" lon="4.98325">
        <ele>221.24</ele>
        <time>2018-12-13T12:07:34Z</time>
      </trkpt>
      <trkpt lat="49.63028" lon="4.98323">
        <ele>227.49</ele>
        <time>2018-12-13T12:07:50Z</time>
      </trkpt>
      <trkpt lat="49.63014" lon="4.98323">
        <ele>230.37</ele>
        <time>2018-12-13T12:08:04Z</time>
      </trkpt>
      <trkpt lat="49.62998" lon="4.9832">
        <ele>230.37</ele>
        <time>2018-12-13T12:08:19Z</time>
      </trkpt>
      <trkpt lat="49.62995" lon="4.9832">
        <ele>231.33</ele>
        <time>2018-12-13T12:08:31Z</time>
      </trkpt>
      <trkpt lat="49.62986" lon="4.98321">
        <ele>232.78</ele>
        <time>2018-12-13T12:08:43Z</time>
      </trkpt>
      <trkpt lat="49.62968" lon="4.9832">
        <ele>235.66</ele>
        <time>2018-12-13T12:08:59Z</time>
      </trkpt>
      <trkpt lat="49.6295" lon="4.98319">
        <ele>232.3</ele>
        <time>2018-12-13T12:09:15Z</time>
      </trkpt>
      <trkpt lat="49.62938" lon="4.98322">
        <ele>231.33</ele>
        <time>2018-12-13T12:09:26Z</time>
      </trkpt>
      <trkpt lat="49.62922" lon="4.98326">
        <ele>232.3</ele>
        <time>2018-12-13T12:09:41Z</time>
      </trkpt>
      <trkpt lat="49.62904" lon="4.98332">
        <ele>233.26</ele>
        <time>2018-12-13T12:09:59Z</time>
      </trkpt>
      <trkpt lat="49.62897" lon="4.98333">
        <ele>232.78</ele>
        <time>2018-12-13T12:10:06Z</time>
      </trkpt>
      <trkpt lat="49.62883" lon="4.98336">
        <ele>234.22</ele>
        <time>2018-12-13T12:10:20Z</time>
      </trkpt>
      <trkpt lat="49.62882" lon="4.98336">
        <ele>233.74</ele>
        <time>2018-12-13T12:10:21Z</time>
      </trkpt>
      <trkpt lat="49.62873" lon="4.98337">
        <ele>234.22</ele>
        <time>2018-12-13T12:10:30Z</time>
      </trkpt>
      <trkpt lat="49.6286" lon="4.98345">
        <ele>236.14</ele>
        <time>2018-12-13T12:10:44Z</time>
      </trkpt>
      <trkpt lat="49.62844" lon="4.9835">
        <ele>237.58</ele>
        <time>2018-12-13T12:10:59Z</time>
      </trkpt>
      <trkpt lat="49.62829" lon="4.9836">
        <ele>239.99</ele>
        <time>2018-12-13T12:11:16Z</time>
      </trkpt>
      <trkpt lat="49.62819" lon="4.98368">
        <ele>245.75</ele>
        <time>2018-12-13T12:11:28Z</time>
      </trkpt>
      <trkpt lat="49.62809" lon="4.98378">
        <ele>249.12</ele>
        <time>2018-12-13T12:11:41Z</time>
      </trkpt>
      <trkpt lat="49.62796" lon="4.98389">
        <ele>251.04</ele>
        <time>2018-12-13T12:11:55Z</time>
      </trkpt>
      <trkpt lat="49.62783" lon="4.984">
        <ele>252.96</ele>
        <time>2018-12-13T12:12:10Z</time>
      </trkpt>
      <trkpt lat="49.62765" lon="4.98412">
        <ele>252.96</ele>
        <time>2018-12-13T12:12:28Z</time>
      </trkpt>
      <trkpt lat="49.62752" lon="4.98424">
        <ele>254.41</ele>
        <time>2018-12-13T12:12:42Z</time>
      </trkpt>
      <trkpt lat="49.62737" lon="4.98436">
        <ele>256.81</ele>
        <time>2018-12-13T12:12:59Z</time>
      </trkpt>
      <trkpt lat="49.62726" lon="4.98445">
        <ele>259.21</ele>
        <time>2018-12-13T12:13:11Z</time>
      </trkpt>
      <trkpt lat="49.62711" lon="4.98458">
        <ele>260.17</ele>
        <time>2018-12-13T12:13:26Z</time>
      </trkpt>
      <trkpt lat="49.62699" lon="4.98467">
        <ele>261.14</ele>
        <time>2018-12-13T12:13:39Z</time>
      </trkpt>
      <trkpt lat="49.6269" lon="4.98476">
        <ele>261.62</ele>
        <time>2018-12-13T12:13:54Z</time>
      </trkpt>
      <trkpt lat="49.62676" lon="4.98486">
        <ele>263.06</ele>
        <time>2018-12-13T12:14:10Z</time>
      </trkpt>
      <trkpt lat="49.62659" lon="4.98501">
        <ele>265.46</ele>
        <time>2018-12-13T12:14:28Z</time>
      </trkpt>
      <trkpt lat="49.62646" lon="4.98513">
        <ele>265.46</ele>
        <time>2018-12-13T12:14:43Z</time>
      </trkpt>
      <trkpt lat="49.62632" lon="4.98526">
        <ele>263.06</ele>
        <time>2018-12-13T12:14:58Z</time>
      </trkpt>
      <trkpt lat="49.62617" lon="4.98539">
        <ele>263.06</ele>
        <time>2018-12-13T12:15:15Z</time>
      </trkpt>
      <trkpt lat="49.62603" lon="4.98549">
        <ele>264.5</ele>
        <time>2018-12-13T12:15:30Z</time>
      </trkpt>
      <trkpt lat="49.6259" lon="4.98559">
        <ele>264.02</ele>
        <time>2018-12-13T12:15:44Z</time>
      </trkpt>
      <trkpt lat="49.62575" lon="4.9857">
        <ele>260.17</ele>
        <time>2018-12-13T12:15:58Z</time>
      </trkpt>
      <trkpt lat="49.62558" lon="4.98583">
        <ele>261.14</ele>
        <time>2018-12-13T12:16:15Z</time>
      </trkpt>
      <trkpt lat="49.62553" lon="4.98568">
        <ele>258.25</ele>
        <time>2018-12-13T12:16:30Z</time>
      </trkpt>
      <trkpt lat="49.62547" lon="4.98554">
        <ele>256.33</ele>
        <time>2018-12-13T12:16:45Z</time>
      </trkpt>
      <trkpt lat="49.62546" lon="4.98553">
        <ele>255.85</ele>
        <time>2018-12-13T12:16:46Z</time>
      </trkpt>
      <trkpt lat="49.62544" lon="4.98553">
        <ele>255.37</ele>
        <time>2018-12-13T12:16:48Z</time>
      </trkpt>
      <trkpt lat="49.62534" lon="4.98558">
        <ele>255.85</ele>
        <time>2018-12-13T12:16:59Z</time>
      </trkpt>
      <trkpt lat="49.62518" lon="4.98559">
        <ele>257.77</ele>
        <time>2018-12-13T12:17:15Z</time>
      </trkpt>
      <trkpt lat="49.62502" lon="4.98553">
        <ele>257.77</ele>
        <time>2018-12-13T12:17:28Z</time>
      </trkpt>
      <trkpt lat="49.62496" lon="4.9855">
        <ele>256.81</ele>
        <time>2018-12-13T12:17:35Z</time>
      </trkpt>
      <trkpt lat="49.62481" lon="4.98537">
        <ele>256.33</ele>
        <time>2018-12-13T12:17:50Z</time>
      </trkpt>
      <trkpt lat="49.62469" lon="4.98529">
        <ele>254.89</ele>
        <time>2018-12-13T12:18:03Z</time>
      </trkpt>
      <trkpt lat="49.62452" lon="4.98519">
        <ele>253.93</ele>
        <time>2018-12-13T12:18:20Z</time>
      </trkpt>
      <trkpt lat="49.6245" lon="4.98518">
        <ele>252.96</ele>
        <time>2018-12-13T12:18:22Z</time>
      </trkpt>
      <trkpt lat="49.62444" lon="4.98514">
        <ele>252.48</ele>
        <time>2018-12-13T12:18:28Z</time>
      </trkpt>
      <trkpt lat="49.62426" lon="4.985">
        <ele>253.44</ele>
        <time>2018-12-13T12:18:45Z</time>
      </trkpt>
      <trkpt lat="49.62411" lon="4.98488">
        <ele>253.93</ele>
        <time>2018-12-13T12:19:01Z</time>
      </trkpt>
      <trkpt lat="49.62394" lon="4.98478">
        <ele>252.96</ele>
        <time>2018-12-13T12:19:17Z</time>
      </trkpt>
      <trkpt lat="49.62377" lon="4.98466">
        <ele>252.48</ele>
        <time>2018-12-13T12:19:34Z</time>
      </trkpt>
      <trkpt lat="49.6236" lon="4.98457">
        <ele>253.93</ele>
        <time>2018-12-13T12:19:50Z</time>
      </trkpt>
      <trkpt lat="49.62344" lon="4.98448">
        <ele>255.37</ele>
        <time>2018-12-13T12:20:06Z</time>
      </trkpt>
      <trkpt lat="49.62342" lon="4.98445">
        <ele>255.37</ele>
        <time>2018-12-13T12:20:09Z</time>
      </trkpt>
      <trkpt lat="49.62335" lon="4.98441">
        <ele>254.89</ele>
        <time>2018-12-13T12:20:15Z</time>
      </trkpt>
      <trkpt lat="49.62322" lon="4.98429">
        <ele>254.41</ele>
        <time>2018-12-13T12:20:29Z</time>
      </trkpt>
      <trkpt lat="49.62315" lon="4.98422">
        <ele>253.93</ele>
        <time>2018-12-13T12:20:37Z</time>
      </trkpt>
      <trkpt lat="49.62312" lon="4.98417">
        <ele>254.89</ele>
        <time>2018-12-13T12:20:41Z</time>
      </trkpt>
      <trkpt lat="49.62308" lon="4.98413">
        <ele>255.37</ele>
        <time>2018-12-13T12:20:45Z</time>
      </trkpt>
      <trkpt lat="49.62294" lon="4.98391">
        <ele>257.29</ele>
        <time>2018-12-13T12:21:04Z</time>
      </trkpt>
      <trkpt lat="49.62284" lon="4.98373">
        <ele>259.21</ele>
        <time>2018-12-13T12:21:19Z</time>
      </trkpt>
      <trkpt lat="49.62274" lon="4.98357">
        <ele>259.69</ele>
        <time>2018-12-13T12:21:36Z</time>
      </trkpt>
      <trkpt lat="49.62263" lon="4.98337">
        <ele>263.54</ele>
        <time>2018-12-13T12:21:52Z</time>
      </trkpt>
      <trkpt lat="49.62249" lon="4.98324">
        <ele>266.9</ele>
        <time>2018-12-13T12:22:08Z</time>
      </trkpt>
      <trkpt lat="49.62232" lon="4.98313">
        <ele>264.98</ele>
        <time>2018-12-13T12:22:25Z</time>
      </trkpt>
      <trkpt lat="49.62219" lon="4.98306">
        <ele>264.02</ele>
        <time>2018-12-13T12:22:38Z</time>
      </trkpt>
      <trkpt lat="49.622" lon="4.98294">
        <ele>264.98</ele>
        <time>2018-12-13T12:22:54Z</time>
      </trkpt>
      <trkpt lat="49.62185" lon="4.9829">
        <ele>265.46</ele>
        <time>2018-12-13T12:23:09Z</time>
      </trkpt>
      <trkpt lat="49.62165" lon="4.98287">
        <ele>264.5</ele>
        <time>2018-12-13T12:23:26Z</time>
      </trkpt>
      <trkpt lat="49.62148" lon="4.98278">
        <ele>265.46</ele>
        <time>2018-12-13T12:23:42Z</time>
      </trkpt>
      <trkpt lat="49.62131" lon="4.98266">
        <ele>270.75</ele>
        <time>2018-12-13T12:23:58Z</time>
      </trkpt>
      <trkpt lat="49.62117" lon="4.98258">
        <ele>269.31</ele>
        <time>2018-12-13T12:24:12Z</time>
      </trkpt>
      <trkpt lat="49.621" lon="4.98243">
        <ele>267.86</ele>
        <time>2018-12-13T12:24:30Z</time>
      </trkpt>
      <trkpt lat="49.62088" lon="4.98233">
        <ele>266.9</ele>
        <time>2018-12-13T12:24:44Z</time>
      </trkpt>
      <trkpt lat="49.62072" lon="4.98225">
        <ele>266.9</ele>
        <time>2018-12-13T12:25:01Z</time>
      </trkpt>
      <trkpt lat="49.62055" lon="4.98216">
        <ele>268.35</ele>
        <time>2018-12-13T12:25:18Z</time>
      </trkpt>
      <trkpt lat="49.62038" lon="4.98205">
        <ele>269.79</ele>
        <time>2018-12-13T12:25:33Z</time>
      </trkpt>
      <trkpt lat="49.62022" lon="4.98196">
        <ele>273.15</ele>
        <time>2018-12-13T12:25:48Z</time>
      </trkpt>
      <trkpt lat="49.62008" lon="4.98192">
        <ele>273.15</ele>
        <time>2018-12-13T12:26:02Z</time>
      </trkpt>
      <trkpt lat="49.61991" lon="4.98183">
        <ele>274.59</ele>
        <time>2018-12-13T12:26:18Z</time>
      </trkpt>
      <trkpt lat="49.61981" lon="4.98179">
        <ele>276.04</ele>
        <time>2018-12-13T12:26:29Z</time>
      </trkpt>
      <trkpt lat="49.61965" lon="4.98169">
        <ele>278.92</ele>
        <time>2018-12-13T12:26:45Z</time>
      </trkpt>
      <trkpt lat="49.61952" lon="4.98168">
        <ele>281.8</ele>
        <time>2018-12-13T12:27:00Z</time>
      </trkpt>
      <trkpt lat="49.61934" lon="4.9816">
        <ele>284.21</ele>
        <time>2018-12-13T12:27:17Z</time>
      </trkpt>
      <trkpt lat="49.61917" lon="4.98154">
        <ele>287.57</ele>
        <time>2018-12-13T12:27:31Z</time>
      </trkpt>
      <trkpt lat="49.61902" lon="4.98149">
        <ele>287.09</ele>
        <time>2018-12-13T12:27:45Z</time>
      </trkpt>
      <trkpt lat="49.61886" lon="4.98149">
        <ele>288.53</ele>
        <time>2018-12-13T12:28:02Z</time>
      </trkpt>
      <trkpt lat="49.61873" lon="4.98155">
        <ele>290.94</ele>
        <time>2018-12-13T12:28:17Z</time>
      </trkpt>
      <trkpt lat="49.61861" lon="4.98163">
        <ele>291.9</ele>
        <time>2018-12-13T12:28:30Z</time>
      </trkpt>
      <trkpt lat="49.61848" lon="4.98172">
        <ele>293.82</ele>
        <time>2018-12-13T12:28:44Z</time>
      </trkpt>
      <trkpt lat="49.61833" lon="4.98176">
        <ele>293.34</ele>
        <time>2018-12-13T12:28:57Z</time>
      </trkpt>
      <trkpt lat="49.61833" lon="4.98161">
        <ele>290.46</ele>
        <time>2018-12-13T12:29:11Z</time>
      </trkpt>
      <trkpt lat="49.61833" lon="4.9816">
        <ele>290.46</ele>
        <time>2018-12-13T12:29:12Z</time>
      </trkpt>
      <trkpt lat="49.61839" lon="4.98148">
        <ele>290.46</ele>
        <time>2018-12-13T12:29:22Z</time>
      </trkpt>
      <trkpt lat="49.61848" lon="4.98129">
        <ele>288.05</ele>
        <time>2018-12-13T12:29:37Z</time>
      </trkpt>
      <trkpt lat="49.61855" lon="4.98112">
        <ele>283.25</ele>
        <time>2018-12-13T12:29:52Z</time>
      </trkpt>
      <trkpt lat="49.61864" lon="4.98092">
        <ele>280.84</ele>
        <time>2018-12-13T12:30:08Z</time>
      </trkpt>
      <trkpt lat="49.61874" lon="4.9807">
        <ele>281.8</ele>
        <time>2018-12-13T12:30:24Z</time>
      </trkpt>
      <trkpt lat="49.61882" lon="4.9805">
        <ele>282.28</ele>
        <time>2018-12-13T12:30:39Z</time>
      </trkpt>
      <trkpt lat="49.61891" lon="4.98028">
        <ele>281.32</ele>
        <time>2018-12-13T12:30:54Z</time>
      </trkpt>
      <trkpt lat="49.61899" lon="4.98009">
        <ele>278.44</ele>
        <time>2018-12-13T12:31:10Z</time>
      </trkpt>
      <trkpt lat="49.6191" lon="4.97988">
        <ele>277.96</ele>
        <time>2018-12-13T12:31:27Z</time>
      </trkpt>
      <trkpt lat="49.61919" lon="4.97973">
        <ele>277.48</ele>
        <time>2018-12-13T12:31:40Z</time>
      </trkpt>
      <trkpt lat="49.61934" lon="4.97951">
        <ele>277.96</ele>
        <time>2018-12-13T12:31:58Z</time>
      </trkpt>
      <trkpt lat="49.61949" lon="4.97931">
        <ele>278.92</ele>
        <time>2018-12-13T12:32:16Z</time>
      </trkpt>
      <trkpt lat="49.61965" lon="4.97905">
        <ele>278.92</ele>
        <time>2018-12-13T12:32:37Z</time>
      </trkpt>
      <trkpt lat="49.61974" lon="4.97887">
        <ele>278.92</ele>
        <time>2018-12-13T12:32:52Z</time>
      </trkpt>
      <trkpt lat="49.61985" lon="4.97864">
        <ele>279.4</ele>
        <time>2018-12-13T12:33:08Z</time>
      </trkpt>
      <trkpt lat="49.61994" lon="4.97835">
        <ele>277.96</ele>
        <time>2018-12-13T12:33:27Z</time>
      </trkpt>
      <trkpt lat="49.62001" lon="4.97803">
        <ele>277</ele>
        <time>2018-12-13T12:33:47Z</time>
      </trkpt>
      <trkpt lat="49.62002" lon="4.978">
        <ele>277</ele>
        <time>2018-12-13T12:33:49Z</time>
      </trkpt>
      <trkpt lat="49.62007" lon="4.97774">
        <ele>277</ele>
        <time>2018-12-13T12:34:05Z</time>
      </trkpt>
      <trkpt lat="49.62012" lon="4.97744">
        <ele>276.52</ele>
        <time>2018-12-13T12:34:24Z</time>
      </trkpt>
      <trkpt lat="49.62018" lon="4.97712">
        <ele>276.04</ele>
        <time>2018-12-13T12:34:44Z</time>
      </trkpt>
      <trkpt lat="49.62024" lon="4.97679">
        <ele>276.04</ele>
        <time>2018-12-13T12:35:04Z</time>
      </trkpt>
      <trkpt lat="49.62029" lon="4.97645">
        <ele>274.59</ele>
        <time>2018-12-13T12:35:26Z</time>
      </trkpt>
      <trkpt lat="49.6203" lon="4.97608">
        <ele>274.59</ele>
        <time>2018-12-13T12:35:48Z</time>
      </trkpt>
      <trkpt lat="49.62032" lon="4.97576">
        <ele>275.07</ele>
        <time>2018-12-13T12:36:07Z</time>
      </trkpt>
      <trkpt lat="49.62034" lon="4.97547">
        <ele>275.56</ele>
        <time>2018-12-13T12:36:25Z</time>
      </trkpt>
      <trkpt lat="49.62036" lon="4.97516">
        <ele>272.67</ele>
        <time>2018-12-13T12:36:44Z</time>
      </trkpt>
      <trkpt lat="49.62034" lon="4.97507">
        <ele>272.19</ele>
        <time>2018-12-13T12:36:52Z</time>
      </trkpt>
      <trkpt lat="49.62033" lon="4.97505">
        <ele>271.71</ele>
        <time>2018-12-13T12:36:54Z</time>
      </trkpt>
      <trkpt lat="49.62016" lon="4.97503">
        <ele>270.75</ele>
        <time>2018-12-13T12:37:10Z</time>
      </trkpt>
      <trkpt lat="49.61998" lon="4.975">
        <ele>270.75</ele>
        <time>2018-12-13T12:37:28Z</time>
      </trkpt>
      <trkpt lat="49.61985" lon="4.975">
        <ele>271.23</ele>
        <time>2018-12-13T12:37:40Z</time>
      </trkpt>
      <trkpt lat="49.61965" lon="4.97501">
        <ele>270.27</ele>
        <time>2018-12-13T12:38:00Z</time>
      </trkpt>
      <trkpt lat="49.61946" lon="4.97503">
        <ele>267.86</ele>
        <time>2018-12-13T12:38:17Z</time>
      </trkpt>
      <trkpt lat="49.61928" lon="4.97503">
        <ele>266.9</ele>
        <time>2018-12-13T12:38:34Z</time>
      </trkpt>
      <trkpt lat="49.61909" lon="4.97502">
        <ele>266.42</ele>
        <time>2018-12-13T12:38:52Z</time>
      </trkpt>
      <trkpt lat="49.61892" lon="4.975">
        <ele>264.5</ele>
        <time>2018-12-13T12:39:09Z</time>
      </trkpt>
      <trkpt lat="49.61878" lon="4.97485">
        <ele>263.54</ele>
        <time>2018-12-13T12:39:26Z</time>
      </trkpt>
      <trkpt lat="49.61865" lon="4.97467">
        <ele>263.06</ele>
        <time>2018-12-13T12:39:44Z</time>
      </trkpt>
      <trkpt lat="49.61849" lon="4.97447">
        <ele>262.58</ele>
        <time>2018-12-13T12:40:04Z</time>
      </trkpt>
      <trkpt lat="49.61836" lon="4.97431">
        <ele>260.65</ele>
        <time>2018-12-13T12:40:21Z</time>
      </trkpt>
      <trkpt lat="49.61824" lon="4.97416">
        <ele>258.25</ele>
        <time>2018-12-13T12:40:36Z</time>
      </trkpt>
      <trkpt lat="49.61816" lon="4.97391">
        <ele>257.77</ele>
        <time>2018-12-13T12:40:54Z</time>
      </trkpt>
      <trkpt lat="49.61809" lon="4.97365">
        <ele>257.77</ele>
        <time>2018-12-13T12:41:12Z</time>
      </trkpt>
      <trkpt lat="49.61808" lon="4.97364">
        <ele>257.77</ele>
        <time>2018-12-13T12:41:13Z</time>
      </trkpt>
      <trkpt lat="49.61805" lon="4.97348">
        <ele>257.29</ele>
        <time>2018-12-13T12:41:23Z</time>
      </trkpt>
      <trkpt lat="49.61799" lon="4.97322">
        <ele>255.37</ele>
        <time>2018-12-13T12:41:40Z</time>
      </trkpt>
      <trkpt lat="49.61792" lon="4.97297">
        <ele>252.96</ele>
        <time>2018-12-13T12:41:57Z</time>
      </trkpt>
      <trkpt lat="49.61784" lon="4.97269">
        <ele>249.6</ele>
        <time>2018-12-13T12:42:17Z</time>
      </trkpt>
      <trkpt lat="49.61777" lon="4.97246">
        <ele>247.68</ele>
        <time>2018-12-13T12:42:33Z</time>
      </trkpt>
      <trkpt lat="49.61771" lon="4.9722">
        <ele>244.31</ele>
        <time>2018-12-13T12:42:50Z</time>
      </trkpt>
      <trkpt lat="49.61763" lon="4.97198">
        <ele>242.87</ele>
        <time>2018-12-13T12:43:05Z</time>
      </trkpt>
      <trkpt lat="49.61757" lon="4.97176">
        <ele>242.87</ele>
        <time>2018-12-13T12:43:19Z</time>
      </trkpt>
      <trkpt lat="49.61749" lon="4.97153">
        <ele>243.35</ele>
        <time>2018-12-13T12:43:36Z</time>
      </trkpt>
      <trkpt lat="49.61747" lon="4.97154">
        <ele>243.83</ele>
        <time>2018-12-13T12:43:38Z</time>
      </trkpt>
      <trkpt lat="49.61734" lon="4.97175">
        <ele>246.72</ele>
        <time>2018-12-13T12:43:55Z</time>
      </trkpt>
      <trkpt lat="49.61718" lon="4.97194">
        <ele>249.6</ele>
        <time>2018-12-13T12:44:13Z</time>
      </trkpt>
      <trkpt lat="49.61701" lon="4.97219">
        <ele>248.16</ele>
        <time>2018-12-13T12:44:34Z</time>
      </trkpt>
      <trkpt lat="49.61688" lon="4.97245">
        <ele>247.68</ele>
        <time>2018-12-13T12:44:52Z</time>
      </trkpt>
      <trkpt lat="49.6168" lon="4.97261">
        <ele>249.12</ele>
        <time>2018-12-13T12:45:04Z</time>
      </trkpt>
      <trkpt lat="49.61665" lon="4.97282">
        <ele>248.64</ele>
        <time>2018-12-13T12:45:21Z</time>
      </trkpt>
      <trkpt lat="49.61651" lon="4.973">
        <ele>250.56</ele>
        <time>2018-12-13T12:45:39Z</time>
      </trkpt>
      <trkpt lat="49.61637" lon="4.97318">
        <ele>252.48</ele>
        <time>2018-12-13T12:45:56Z</time>
      </trkpt>
      <trkpt lat="49.61624" lon="4.97337">
        <ele>252</ele>
        <time>2018-12-13T12:46:12Z</time>
      </trkpt>
      <trkpt lat="49.61609" lon="4.97357">
        <ele>252.48</ele>
        <time>2018-12-13T12:46:29Z</time>
      </trkpt>
      <trkpt lat="49.61596" lon="4.97377">
        <ele>253.44</ele>
        <time>2018-12-13T12:46:46Z</time>
      </trkpt>
      <trkpt lat="49.61591" lon="4.97384">
        <ele>252.96</ele>
        <time>2018-12-13T12:46:52Z</time>
      </trkpt>
      <trkpt lat="49.61576" lon="4.97404">
        <ele>252</ele>
        <time>2018-12-13T12:47:11Z</time>
      </trkpt>
      <trkpt lat="49.61563" lon="4.97425">
        <ele>253.93</ele>
        <time>2018-12-13T12:47:28Z</time>
      </trkpt>
      <trkpt lat="49.61551" lon="4.97446">
        <ele>255.37</ele>
        <time>2018-12-13T12:47:46Z</time>
      </trkpt>
      <trkpt lat="49.61537" lon="4.9747">
        <ele>254.41</ele>
        <time>2018-12-13T12:48:05Z</time>
      </trkpt>
      <trkpt lat="49.61531" lon="4.97479">
        <ele>255.37</ele>
        <time>2018-12-13T12:48:13Z</time>
      </trkpt>
      <trkpt lat="49.61527" lon="4.97488">
        <ele>256.33</ele>
        <time>2018-12-13T12:48:21Z</time>
      </trkpt>
      <trkpt lat="49.61515" lon="4.97504">
        <ele>259.21</ele>
        <time>2018-12-13T12:48:37Z</time>
      </trkpt>
      <trkpt lat="49.615" lon="4.97524">
        <ele>261.62</ele>
        <time>2018-12-13T12:48:56Z</time>
      </trkpt>
      <trkpt lat="49.61483" lon="4.97544">
        <ele>263.06</ele>
        <time>2018-12-13T12:49:16Z</time>
      </trkpt>
      <trkpt lat="49.61468" lon="4.9756">
        <ele>264.5</ele>
        <time>2018-12-13T12:49:33Z</time>
      </trkpt>
      <trkpt lat="49.61457" lon="4.97575">
        <ele>264.02</ele>
        <time>2018-12-13T12:49:47Z</time>
      </trkpt>
      <trkpt lat="49.61441" lon="4.97597">
        <ele>264.98</ele>
        <time>2018-12-13T12:50:07Z</time>
      </trkpt>
      <trkpt lat="49.61427" lon="4.97617">
        <ele>265.94</ele>
        <time>2018-12-13T12:50:26Z</time>
      </trkpt>
      <trkpt lat="49.6141" lon="4.97637">
        <ele>267.38</ele>
        <time>2018-12-13T12:50:44Z</time>
      </trkpt>
      <trkpt lat="49.61398" lon="4.97649">
        <ele>269.79</ele>
        <time>2018-12-13T12:51:00Z</time>
      </trkpt>
      <trkpt lat="49.61384" lon="4.97663">
        <ele>273.15</ele>
        <time>2018-12-13T12:51:17Z</time>
      </trkpt>
      <trkpt lat="49.61381" lon="4.97666">
        <ele>273.63</ele>
        <time>2018-12-13T12:51:20Z</time>
      </trkpt>
      <trkpt lat="49.61369" lon="4.97679">
        <ele>275.56</ele>
        <time>2018-12-13T12:51:35Z</time>
      </trkpt>
      <trkpt lat="49.61368" lon="4.97679">
        <ele>275.56</ele>
        <time>2018-12-13T12:51:36Z</time>
      </trkpt>
      <trkpt lat="49.61356" lon="4.9769">
        <ele>276.52</ele>
        <time>2018-12-13T12:51:50Z</time>
      </trkpt>
      <trkpt lat="49.61343" lon="4.97702">
        <ele>277.96</ele>
        <time>2018-12-13T12:52:05Z</time>
      </trkpt>
      <trkpt lat="49.6133" lon="4.9771">
        <ele>280.36</ele>
        <time>2018-12-13T12:52:19Z</time>
      </trkpt>
      <trkpt lat="49.61316" lon="4.97723">
        <ele>282.28</ele>
        <time>2018-12-13T12:52:36Z</time>
      </trkpt>
      <trkpt lat="49.61309" lon="4.97729">
        <ele>282.77</ele>
        <time>2018-12-13T12:52:43Z</time>
      </trkpt>
      <trkpt lat="49.61297" lon="4.97743">
        <ele>283.73</ele>
        <time>2018-12-13T12:53:00Z</time>
      </trkpt>
      <trkpt lat="49.61297" lon="4.97743">
        <ele>286.13</ele>
        <time>2018-12-13T12:53:15Z</time>
      </trkpt>
      <trkpt lat="49.61296" lon="4.97743">
        <ele>285.17</ele>
        <time>2018-12-13T12:53:32Z</time>
      </trkpt>
      <trkpt lat="49.61297" lon="4.97743">
        <ele>284.69</ele>
        <time>2018-12-13T12:53:50Z</time>
      </trkpt>
      <trkpt lat="49.61296" lon="4.97744">
        <ele>285.65</ele>
        <time>2018-12-13T12:54:12Z</time>
      </trkpt>
      <trkpt lat="49.61296" lon="4.97744">
        <ele>284.69</ele>
        <time>2018-12-13T12:54:36Z</time>
      </trkpt>
      <trkpt lat="49.61295" lon="4.97746">
        <ele>284.69</ele>
        <time>2018-12-13T12:55:00Z</time>
      </trkpt>
      <trkpt lat="49.61295" lon="4.97745">
        <ele>285.65</ele>
        <time>2018-12-13T12:55:22Z</time>
      </trkpt>
      <trkpt lat="49.61295" lon="4.97744">
        <ele>285.17</ele>
        <time>2018-12-13T12:55:42Z</time>
      </trkpt>
      <trkpt lat="49.61294" lon="4.97746">
        <ele>284.69</ele>
        <time>2018-12-13T12:56:03Z</time>
      </trkpt>
      <trkpt lat="49.61292" lon="4.97748">
        <ele>284.21</ele>
        <time>2018-12-13T12:56:21Z</time>
      </trkpt>
      <trkpt lat="49.6129" lon="4.97749">
        <ele>284.69</ele>
        <time>2018-12-13T12:56:41Z</time>
      </trkpt>
      <trkpt lat="49.61285" lon="4.97752">
        <ele>284.69</ele>
        <time>2018-12-13T12:56:55Z</time>
      </trkpt>
      <trkpt lat="49.61277" lon="4.97757">
        <ele>285.65</ele>
        <time>2018-12-13T12:57:08Z</time>
      </trkpt>
      <trkpt lat="49.61271" lon="4.97761">
        <ele>286.61</ele>
        <time>2018-12-13T12:57:21Z</time>
      </trkpt>
      <trkpt lat="49.61263" lon="4.97766">
        <ele>289.01</ele>
        <time>2018-12-13T12:57:34Z</time>
      </trkpt>
      <trkpt lat="49.61253" lon="4.97772">
        <ele>289.97</ele>
        <time>2018-12-13T12:57:47Z</time>
      </trkpt>
      <trkpt lat="49.61239" lon="4.97777">
        <ele>291.42</ele>
        <time>2018-12-13T12:58:05Z</time>
      </trkpt>
      <trkpt lat="49.61228" lon="4.97782">
        <ele>289.97</ele>
        <time>2018-12-13T12:58:19Z</time>
      </trkpt>
      <trkpt lat="49.61217" lon="4.97793">
        <ele>291.9</ele>
        <time>2018-12-13T12:58:34Z</time>
      </trkpt>
      <trkpt lat="49.61208" lon="4.97802">
        <ele>292.86</ele>
        <time>2018-12-13T12:58:49Z</time>
      </trkpt>
      <trkpt lat="49.61204" lon="4.97805">
        <ele>293.34</ele>
        <time>2018-12-13T12:59:05Z</time>
      </trkpt>
      <trkpt lat="49.612" lon="4.97811">
        <ele>292.38</ele>
        <time>2018-12-13T12:59:18Z</time>
      </trkpt>
      <trkpt lat="49.61192" lon="4.97825">
        <ele>293.34</ele>
        <time>2018-12-13T12:59:32Z</time>
      </trkpt>
      <trkpt lat="49.61186" lon="4.97832">
        <ele>295.26</ele>
        <time>2018-12-13T12:59:43Z</time>
      </trkpt>
      <trkpt lat="49.61176" lon="4.97845">
        <ele>298.15</ele>
        <time>2018-12-13T12:59:56Z</time>
      </trkpt>
      <trkpt lat="49.61163" lon="4.97861">
        <ele>301.51</ele>
        <time>2018-12-13T13:00:10Z</time>
      </trkpt>
      <trkpt lat="49.61151" lon="4.97875">
        <ele>303.91</ele>
        <time>2018-12-13T13:00:23Z</time>
      </trkpt>
      <trkpt lat="49.61141" lon="4.97889">
        <ele>302.95</ele>
        <time>2018-12-13T13:00:35Z</time>
      </trkpt>
      <trkpt lat="49.61129" lon="4.97906">
        <ele>305.36</ele>
        <time>2018-12-13T13:00:48Z</time>
      </trkpt>
      <trkpt lat="49.6112" lon="4.97925">
        <ele>305.36</ele>
        <time>2018-12-13T13:01:04Z</time>
      </trkpt>
      <trkpt lat="49.61119" lon="4.97928">
        <ele>305.36</ele>
        <time>2018-12-13T13:01:06Z</time>
      </trkpt>
      <trkpt lat="49.61102" lon="4.97951">
        <ele>303.91</ele>
        <time>2018-12-13T13:01:20Z</time>
      </trkpt>
      <trkpt lat="49.61089" lon="4.9797">
        <ele>304.88</ele>
        <time>2018-12-13T13:01:33Z</time>
      </trkpt>
      <trkpt lat="49.61077" lon="4.97987">
        <ele>307.76</ele>
        <time>2018-12-13T13:01:46Z</time>
      </trkpt>
      <trkpt lat="49.61069" lon="4.98002">
        <ele>307.76</ele>
        <time>2018-12-13T13:01:59Z</time>
      </trkpt>
      <trkpt lat="49.61059" lon="4.98019">
        <ele>308.24</ele>
        <time>2018-12-13T13:02:10Z</time>
      </trkpt>
      <trkpt lat="49.61049" lon="4.98032">
        <ele>309.2</ele>
        <time>2018-12-13T13:02:21Z</time>
      </trkpt>
      <trkpt lat="49.61038" lon="4.98044">
        <ele>307.76</ele>
        <time>2018-12-13T13:02:32Z</time>
      </trkpt>
      <trkpt lat="49.6103" lon="4.9806">
        <ele>310.16</ele>
        <time>2018-12-13T13:02:45Z</time>
      </trkpt>
      <trkpt lat="49.61017" lon="4.98078">
        <ele>308.72</ele>
        <time>2018-12-13T13:02:58Z</time>
      </trkpt>
      <trkpt lat="49.61013" lon="4.9808">
        <ele>309.2</ele>
        <time>2018-12-13T13:03:02Z</time>
      </trkpt>
      <trkpt lat="49.60997" lon="4.98072">
        <ele>308.24</ele>
        <time>2018-12-13T13:03:17Z</time>
      </trkpt>
      <trkpt lat="49.60986" lon="4.98061">
        <ele>308.72</ele>
        <time>2018-12-13T13:03:32Z</time>
      </trkpt>
      <trkpt lat="49.60975" lon="4.9805">
        <ele>310.16</ele>
        <time>2018-12-13T13:03:48Z</time>
      </trkpt>
      <trkpt lat="49.60965" lon="4.98037">
        <ele>310.16</ele>
        <time>2018-12-13T13:04:01Z</time>
      </trkpt>
      <trkpt lat="49.60951" lon="4.98013">
        <ele>310.64</ele>
        <time>2018-12-13T13:04:16Z</time>
      </trkpt>
      <trkpt lat="49.60942" lon="4.97992">
        <ele>311.6</ele>
        <time>2018-12-13T13:04:29Z</time>
      </trkpt>
      <trkpt lat="49.60931" lon="4.97976">
        <ele>309.2</ele>
        <time>2018-12-13T13:04:41Z</time>
      </trkpt>
      <trkpt lat="49.60912" lon="4.97952">
        <ele>306.8</ele>
        <time>2018-12-13T13:04:58Z</time>
      </trkpt>
      <trkpt lat="49.60903" lon="4.97939">
        <ele>301.03</ele>
        <time>2018-12-13T13:05:13Z</time>
      </trkpt>
      <trkpt lat="49.60896" lon="4.9793">
        <ele>299.11</ele>
        <time>2018-12-13T13:05:24Z</time>
      </trkpt>
      <trkpt lat="49.60885" lon="4.97916">
        <ele>295.74</ele>
        <time>2018-12-13T13:05:39Z</time>
      </trkpt>
      <trkpt lat="49.6087" lon="4.97886">
        <ele>298.15</ele>
        <time>2018-12-13T13:05:54Z</time>
      </trkpt>
      <trkpt lat="49.60861" lon="4.97861">
        <ele>298.63</ele>
        <time>2018-12-13T13:06:10Z</time>
      </trkpt>
      <trkpt lat="49.60855" lon="4.97837">
        <ele>295.26</ele>
        <time>2018-12-13T13:06:26Z</time>
      </trkpt>
      <trkpt lat="49.60848" lon="4.97813">
        <ele>290.46</ele>
        <time>2018-12-13T13:06:41Z</time>
      </trkpt>
      <trkpt lat="49.60843" lon="4.97795">
        <ele>283.25</ele>
        <time>2018-12-13T13:06:55Z</time>
      </trkpt>
      <trkpt lat="49.60839" lon="4.97782">
        <ele>280.36</ele>
        <time>2018-12-13T13:07:09Z</time>
      </trkpt>
      <trkpt lat="49.60835" lon="4.97759">
        <ele>279.88</ele>
        <time>2018-12-13T13:07:24Z</time>
      </trkpt>
      <trkpt lat="49.60828" lon="4.97734">
        <ele>280.36</ele>
        <time>2018-12-13T13:07:39Z</time>
      </trkpt>
      <trkpt lat="49.60827" lon="4.97726">
        <ele>280.84</ele>
        <time>2018-12-13T13:07:52Z</time>
      </trkpt>
      <trkpt lat="49.60825" lon="4.97716">
        <ele>280.84</ele>
        <time>2018-12-13T13:08:04Z</time>
      </trkpt>
      <trkpt lat="49.60819" lon="4.97691">
        <ele>279.4</ele>
        <time>2018-12-13T13:08:19Z</time>
      </trkpt>
      <trkpt lat="49.60814" lon="4.97666">
        <ele>278.92</ele>
        <time>2018-12-13T13:08:34Z</time>
      </trkpt>
      <trkpt lat="49.60807" lon="4.97639">
        <ele>278.92</ele>
        <time>2018-12-13T13:08:50Z</time>
      </trkpt>
      <trkpt lat="49.60803" lon="4.97619">
        <ele>278.44</ele>
        <time>2018-12-13T13:09:03Z</time>
      </trkpt>
      <trkpt lat="49.60797" lon="4.97597">
        <ele>277.96</ele>
        <time>2018-12-13T13:09:18Z</time>
      </trkpt>
      <trkpt lat="49.60794" lon="4.9758">
        <ele>277.96</ele>
        <time>2018-12-13T13:09:31Z</time>
      </trkpt>
      <trkpt lat="49.60787" lon="4.97562">
        <ele>273.63</ele>
        <time>2018-12-13T13:09:45Z</time>
      </trkpt>
      <trkpt lat="49.6078" lon="4.97547">
        <ele>273.15</ele>
        <time>2018-12-13T13:09:59Z</time>
      </trkpt>
      <trkpt lat="49.60776" lon="4.97534">
        <ele>271.23</ele>
        <time>2018-12-13T13:10:14Z</time>
      </trkpt>
      <trkpt lat="49.60775" lon="4.97527">
        <ele>270.27</ele>
        <time>2018-12-13T13:10:28Z</time>
      </trkpt>
      <trkpt lat="49.60772" lon="4.97515">
        <ele>269.79</ele>
        <time>2018-12-13T13:10:45Z</time>
      </trkpt>
      <trkpt lat="49.60767" lon="4.97482">
        <ele>267.38</ele>
        <time>2018-12-13T13:11:02Z</time>
      </trkpt>
      <trkpt lat="49.60764" lon="4.97472">
        <ele>266.9</ele>
        <time>2018-12-13T13:11:08Z</time>
      </trkpt>
      <trkpt lat="49.60754" lon="4.97446">
        <ele>263.54</ele>
        <time>2018-12-13T13:11:24Z</time>
      </trkpt>
      <trkpt lat="49.60747" lon="4.97429">
        <ele>262.58</ele>
        <time>2018-12-13T13:11:36Z</time>
      </trkpt>
      <trkpt lat="49.6074" lon="4.97413">
        <ele>255.85</ele>
        <time>2018-12-13T13:11:51Z</time>
      </trkpt>
      <trkpt lat="49.60734" lon="4.97394">
        <ele>250.56</ele>
        <time>2018-12-13T13:12:06Z</time>
      </trkpt>
      <trkpt lat="49.60725" lon="4.97365">
        <ele>249.6</ele>
        <time>2018-12-13T13:12:26Z</time>
      </trkpt>
      <trkpt lat="49.60717" lon="4.97336">
        <ele>246.72</ele>
        <time>2018-12-13T13:12:44Z</time>
      </trkpt>
      <trkpt lat="49.6071" lon="4.97313">
        <ele>243.83</ele>
        <time>2018-12-13T13:13:01Z</time>
      </trkpt>
      <trkpt lat="49.60705" lon="4.97294">
        <ele>239.99</ele>
        <time>2018-12-13T13:13:16Z</time>
      </trkpt>
      <trkpt lat="49.60704" lon="4.97288">
        <ele>238.54</ele>
        <time>2018-12-13T13:13:21Z</time>
      </trkpt>
      <trkpt lat="49.60699" lon="4.97268">
        <ele>236.14</ele>
        <time>2018-12-13T13:13:34Z</time>
      </trkpt>
      <trkpt lat="49.60697" lon="4.97254">
        <ele>233.26</ele>
        <time>2018-12-13T13:13:44Z</time>
      </trkpt>
      <trkpt lat="49.60692" lon="4.97221">
        <ele>236.62</ele>
        <time>2018-12-13T13:14:01Z</time>
      </trkpt>
      <trkpt lat="49.60688" lon="4.97189">
        <ele>237.1</ele>
        <time>2018-12-13T13:14:19Z</time>
      </trkpt>
      <trkpt lat="49.60688" lon="4.97182">
        <ele>236.14</ele>
        <time>2018-12-13T13:14:24Z</time>
      </trkpt>
      <trkpt lat="49.60685" lon="4.97156">
        <ele>236.62</ele>
        <time>2018-12-13T13:14:40Z</time>
      </trkpt>
      <trkpt lat="49.60687" lon="4.97122">
        <ele>234.7</ele>
        <time>2018-12-13T13:15:01Z</time>
      </trkpt>
      <trkpt lat="49.60687" lon="4.97089">
        <ele>234.22</ele>
        <time>2018-12-13T13:15:21Z</time>
      </trkpt>
      <trkpt lat="49.60686" lon="4.97055">
        <ele>233.74</ele>
        <time>2018-12-13T13:15:41Z</time>
      </trkpt>
      <trkpt lat="49.60687" lon="4.97024">
        <ele>232.78</ele>
        <time>2018-12-13T13:15:59Z</time>
      </trkpt>
      <trkpt lat="49.60686" lon="4.97002">
        <ele>233.26</ele>
        <time>2018-12-13T13:16:16Z</time>
      </trkpt>
      <trkpt lat="49.60687" lon="4.96992">
        <ele>233.74</ele>
        <time>2018-12-13T13:16:23Z</time>
      </trkpt>
      <trkpt lat="49.60687" lon="4.96989">
        <ele>233.74</ele>
        <time>2018-12-13T13:16:25Z</time>
      </trkpt>
      <trkpt lat="49.60684" lon="4.96969">
        <ele>232.3</ele>
        <time>2018-12-13T13:16:38Z</time>
      </trkpt>
      <trkpt lat="49.60684" lon="4.96968">
        <ele>231.81</ele>
        <time>2018-12-13T13:16:39Z</time>
      </trkpt>
      <trkpt lat="49.60681" lon="4.96948">
        <ele>231.81</ele>
        <time>2018-12-13T13:16:52Z</time>
      </trkpt>
      <trkpt lat="49.60679" lon="4.96926">
        <ele>229.41</ele>
        <time>2018-12-13T13:17:07Z</time>
      </trkpt>
      <trkpt lat="49.60676" lon="4.96898">
        <ele>228.45</ele>
        <time>2018-12-13T13:17:23Z</time>
      </trkpt>
      <trkpt lat="49.60671" lon="4.96874">
        <ele>227.97</ele>
        <time>2018-12-13T13:17:39Z</time>
      </trkpt>
      <trkpt lat="49.60665" lon="4.96852">
        <ele>227.97</ele>
        <time>2018-12-13T13:17:55Z</time>
      </trkpt>
      <trkpt lat="49.60657" lon="4.96833">
        <ele>227.49</ele>
        <time>2018-12-13T13:18:07Z</time>
      </trkpt>
      <trkpt lat="49.60652" lon="4.96818">
        <ele>227.01</ele>
        <time>2018-12-13T13:18:17Z</time>
      </trkpt>
      <trkpt lat="49.6065" lon="4.96812">
        <ele>227.01</ele>
        <time>2018-12-13T13:18:21Z</time>
      </trkpt>
      <trkpt lat="49.60642" lon="4.96783">
        <ele>223.16</ele>
        <time>2018-12-13T13:18:40Z</time>
      </trkpt>
      <trkpt lat="49.60636" lon="4.96763">
        <ele>217.88</ele>
        <time>2018-12-13T13:18:57Z</time>
      </trkpt>
      <trkpt lat="49.60627" lon="4.96736">
        <ele>212.59</ele>
        <time>2018-12-13T13:19:15Z</time>
      </trkpt>
      <trkpt lat="49.60618" lon="4.96711">
        <ele>210.19</ele>
        <time>2018-12-13T13:19:32Z</time>
      </trkpt>
      <trkpt lat="49.60613" lon="4.96688">
        <ele>209.22</ele>
        <time>2018-12-13T13:19:45Z</time>
      </trkpt>
      <trkpt lat="49.60605" lon="4.96659">
        <ele>208.26</ele>
        <time>2018-12-13T13:20:03Z</time>
      </trkpt>
      <trkpt lat="49.60597" lon="4.96632">
        <ele>206.82</ele>
        <time>2018-12-13T13:20:20Z</time>
      </trkpt>
      <trkpt lat="49.60589" lon="4.966">
        <ele>206.34</ele>
        <time>2018-12-13T13:20:39Z</time>
      </trkpt>
      <trkpt lat="49.60584" lon="4.96571">
        <ele>208.26</ele>
        <time>2018-12-13T13:20:57Z</time>
      </trkpt>
      <trkpt lat="49.60581" lon="4.96556">
        <ele>207.78</ele>
        <time>2018-12-13T13:21:05Z</time>
      </trkpt>
      <trkpt lat="49.60577" lon="4.96529">
        <ele>207.78</ele>
        <time>2018-12-13T13:21:21Z</time>
      </trkpt>
      <trkpt lat="49.60572" lon="4.96498">
        <ele>207.3</ele>
        <time>2018-12-13T13:21:39Z</time>
      </trkpt>
      <trkpt lat="49.60569" lon="4.96473">
        <ele>206.34</ele>
        <time>2018-12-13T13:21:54Z</time>
      </trkpt>
      <trkpt lat="49.60568" lon="4.96471">
        <ele>206.34</ele>
        <time>2018-12-13T13:21:56Z</time>
      </trkpt>
      <trkpt lat="49.60567" lon="4.9648">
        <ele>206.82</ele>
        <time>2018-12-13T13:22:08Z</time>
      </trkpt>
      <trkpt lat="49.60566" lon="4.96481">
        <ele>207.78</ele>
        <time>2018-12-13T13:22:25Z</time>
      </trkpt>
      <trkpt lat="49.60565" lon="4.96481">
        <ele>207.3</ele>
        <time>2018-12-13T13:22:42Z</time>
      </trkpt>
      <trkpt lat="49.60565" lon="4.96481">
        <ele>209.7</ele>
        <time>2018-12-13T13:23:08Z</time>
      </trkpt>
      <trkpt lat="49.60566" lon="4.96481">
        <ele>209.7</ele>
        <time>2018-12-13T13:23:35Z</time>
      </trkpt>
      <trkpt lat="49.60566" lon="4.96481">
        <ele>210.19</ele>
        <time>2018-12-13T13:23:51Z</time>
      </trkpt>
      <trkpt lat="49.60565" lon="4.96482">
        <ele>211.63</ele>
        <time>2018-12-13T13:24:05Z</time>
      </trkpt>
      <trkpt lat="49.60564" lon="4.96482">
        <ele>211.63</ele>
        <time>2018-12-13T13:24:18Z</time>
      </trkpt>
      <trkpt lat="49.60564" lon="4.96483">
        <ele>211.15</ele>
        <time>2018-12-13T13:24:42Z</time>
      </trkpt>
      <trkpt lat="49.60563" lon="4.96484">
        <ele>211.63</ele>
        <time>2018-12-13T13:25:00Z</time>
      </trkpt>
      <trkpt lat="49.60562" lon="4.96483">
        <ele>212.11</ele>
        <time>2018-12-13T13:25:16Z</time>
      </trkpt>
      <trkpt lat="49.60562" lon="4.96483">
        <ele>212.11</ele>
        <time>2018-12-13T13:25:39Z</time>
      </trkpt>
      <trkpt lat="49.60562" lon="4.96484">
        <ele>212.11</ele>
        <time>2018-12-13T13:25:59Z</time>
      </trkpt>
      <trkpt lat="49.60562" lon="4.9648">
        <ele>212.59</ele>
        <time>2018-12-13T13:26:06Z</time>
      </trkpt>
      <trkpt lat="49.60561" lon="4.96475">
        <ele>212.59</ele>
        <time>2018-12-13T13:26:09Z</time>
      </trkpt>
      <trkpt lat="49.60563" lon="4.96465">
        <ele>212.59</ele>
        <time>2018-12-13T13:26:15Z</time>
      </trkpt>
      <trkpt lat="49.60562" lon="4.96449">
        <ele>213.07</ele>
        <time>2018-12-13T13:26:24Z</time>
      </trkpt>
      <trkpt lat="49.60559" lon="4.9643">
        <ele>214.03</ele>
        <time>2018-12-13T13:26:35Z</time>
      </trkpt>
      <trkpt lat="49.60556" lon="4.96406">
        <ele>215.47</ele>
        <time>2018-12-13T13:26:50Z</time>
      </trkpt>
      <trkpt lat="49.60558" lon="4.96371">
        <ele>218.84</ele>
        <time>2018-12-13T13:27:07Z</time>
      </trkpt>
      <trkpt lat="49.60557" lon="4.96348">
        <ele>221.72</ele>
        <time>2018-12-13T13:27:23Z</time>
      </trkpt>
      <trkpt lat="49.60556" lon="4.96326">
        <ele>219.32</ele>
        <time>2018-12-13T13:27:35Z</time>
      </trkpt>
      <trkpt lat="49.60556" lon="4.96314">
        <ele>217.88</ele>
        <time>2018-12-13T13:27:40Z</time>
      </trkpt>
      <trkpt lat="49.60556" lon="4.96284">
        <ele>214.51</ele>
        <time>2018-12-13T13:27:57Z</time>
      </trkpt>
      <trkpt lat="49.60555" lon="4.96258">
        <ele>211.63</ele>
        <time>2018-12-13T13:28:14Z</time>
      </trkpt>
      <trkpt lat="49.60553" lon="4.96225">
        <ele>210.67</ele>
        <time>2018-12-13T13:28:33Z</time>
      </trkpt>
      <trkpt lat="49.6055" lon="4.96195">
        <ele>210.19</ele>
        <time>2018-12-13T13:28:50Z</time>
      </trkpt>
      <trkpt lat="49.60544" lon="4.96167">
        <ele>210.19</ele>
        <time>2018-12-13T13:29:08Z</time>
      </trkpt>
      <trkpt lat="49.60542" lon="4.96158">
        <ele>210.19</ele>
        <time>2018-12-13T13:29:14Z</time>
      </trkpt>
      <trkpt lat="49.60538" lon="4.96138">
        <ele>210.19</ele>
        <time>2018-12-13T13:29:26Z</time>
      </trkpt>
      <trkpt lat="49.60526" lon="4.96115">
        <ele>209.22</ele>
        <time>2018-12-13T13:29:42Z</time>
      </trkpt>
      <trkpt lat="49.60516" lon="4.9609">
        <ele>208.26</ele>
        <time>2018-12-13T13:29:58Z</time>
      </trkpt>
      <trkpt lat="49.60513" lon="4.96084">
        <ele>207.3</ele>
        <time>2018-12-13T13:30:03Z</time>
      </trkpt>
      <trkpt lat="49.60503" lon="4.96053">
        <ele>200.09</ele>
        <time>2018-12-13T13:30:26Z</time>
      </trkpt>
      <trkpt lat="49.60501" lon="4.96048">
        <ele>199.13</ele>
        <time>2018-12-13T13:30:30Z</time>
      </trkpt>
      <trkpt lat="49.60487" lon="4.96026">
        <ele>199.61</ele>
        <time>2018-12-13T13:30:47Z</time>
      </trkpt>
      <trkpt lat="49.60473" lon="4.96002">
        <ele>198.17</ele>
        <time>2018-12-13T13:31:07Z</time>
      </trkpt>
      <trkpt lat="49.60462" lon="4.95984">
        <ele>192.88</ele>
        <time>2018-12-13T13:31:24Z</time>
      </trkpt>
      <trkpt lat="49.60448" lon="4.95976">
        <ele>191.44</ele>
        <time>2018-12-13T13:31:41Z</time>
      </trkpt>
      <trkpt lat="49.60447" lon="4.95977">
        <ele>191.92</ele>
        <time>2018-12-13T13:31:45Z</time>
      </trkpt>
      <trkpt lat="49.60434" lon="4.95992">
        <ele>199.61</ele>
        <time>2018-12-13T13:31:59Z</time>
      </trkpt>
      <trkpt lat="49.60432" lon="4.95999">
        <ele>201.53</ele>
        <time>2018-12-13T13:32:03Z</time>
      </trkpt>
      <trkpt lat="49.60424" lon="4.96023">
        <ele>206.82</ele>
        <time>2018-12-13T13:32:19Z</time>
      </trkpt>
      <trkpt lat="49.60407" lon="4.96021">
        <ele>209.7</ele>
        <time>2018-12-13T13:32:36Z</time>
      </trkpt>
      <trkpt lat="49.60391" lon="4.96013">
        <ele>208.26</ele>
        <time>2018-12-13T13:32:51Z</time>
      </trkpt>
      <trkpt lat="49.60375" lon="4.96008">
        <ele>210.67</ele>
        <time>2018-12-13T13:33:06Z</time>
      </trkpt>
      <trkpt lat="49.60361" lon="4.96003">
        <ele>211.15</ele>
        <time>2018-12-13T13:33:21Z</time>
      </trkpt>
      <trkpt lat="49.60348" lon="4.96001">
        <ele>211.63</ele>
        <time>2018-12-13T13:33:35Z</time>
      </trkpt>
      <trkpt lat="49.60337" lon="4.95993">
        <ele>211.63</ele>
        <time>2018-12-13T13:33:49Z</time>
      </trkpt>
      <trkpt lat="49.60332" lon="4.95981">
        <ele>210.19</ele>
        <time>2018-12-13T13:34:04Z</time>
      </trkpt>
      <trkpt lat="49.60329" lon="4.95978">
        <ele>210.19</ele>
        <time>2018-12-13T13:34:17Z</time>
      </trkpt>
      <trkpt lat="49.60329" lon="4.95977">
        <ele>210.19</ele>
        <time>2018-12-13T13:34:34Z</time>
      </trkpt>
      <trkpt lat="49.60329" lon="4.95978">
        <ele>209.22</ele>
        <time>2018-12-13T13:34:47Z</time>
      </trkpt>
      <trkpt lat="49.60328" lon="4.95977">
        <ele>209.7</ele>
        <time>2018-12-13T13:35:00Z</time>
      </trkpt>
      <trkpt lat="49.60328" lon="4.95977">
        <ele>210.19</ele>
        <time>2018-12-13T13:35:21Z</time>
      </trkpt>
      <trkpt lat="49.60328" lon="4.95977">
        <ele>210.19</ele>
        <time>2018-12-13T13:35:50Z</time>
      </trkpt>
      <trkpt lat="49.60326" lon="4.95977">
        <ele>210.67</ele>
        <time>2018-12-13T13:36:08Z</time>
      </trkpt>
      <trkpt lat="49.60326" lon="4.95977">
        <ele>211.15</ele>
        <time>2018-12-13T13:36:29Z</time>
      </trkpt>
      <trkpt lat="49.60325" lon="4.95978">
        <ele>211.63</ele>
        <time>2018-12-13T13:36:51Z</time>
      </trkpt>
      <trkpt lat="49.60325" lon="4.9598">
        <ele>211.15</ele>
        <time>2018-12-13T13:37:07Z</time>
      </trkpt>
      <trkpt lat="49.60325" lon="4.95979">
        <ele>210.67</ele>
        <time>2018-12-13T13:37:27Z</time>
      </trkpt>
      <trkpt lat="49.60325" lon="4.95978">
        <ele>210.19</ele>
        <time>2018-12-13T13:37:45Z</time>
      </trkpt>
      <trkpt lat="49.60325" lon="4.95978">
        <ele>210.19</ele>
        <time>2018-12-13T13:38:03Z</time>
      </trkpt>
      <trkpt lat="49.60327" lon="4.95979">
        <ele>210.67</ele>
        <time>2018-12-13T13:38:12Z</time>
      </trkpt>
      <trkpt lat="49.60331" lon="4.95999">
        <ele>211.63</ele>
        <time>2018-12-13T13:38:28Z</time>
      </trkpt>
      <trkpt lat="49.60332" lon="4.96">
        <ele>211.63</ele>
        <time>2018-12-13T13:38:30Z</time>
      </trkpt>
      <trkpt lat="49.60338" lon="4.96003">
        <ele>212.11</ele>
        <time>2018-12-13T13:38:42Z</time>
      </trkpt>
      <trkpt lat="49.60346" lon="4.96004">
        <ele>212.11</ele>
        <time>2018-12-13T13:38:55Z</time>
      </trkpt>
      <trkpt lat="49.60348" lon="4.96005">
        <ele>212.11</ele>
        <time>2018-12-13T13:39:06Z</time>
      </trkpt>
      <trkpt lat="49.6035" lon="4.96004">
        <ele>211.15</ele>
        <time>2018-12-13T13:39:22Z</time>
      </trkpt>
      <trkpt lat="49.6035" lon="4.96004">
        <ele>211.15</ele>
        <time>2018-12-13T13:39:23Z</time>
      </trkpt>
      <trkpt lat="49.60358" lon="4.96007">
        <ele>211.63</ele>
        <time>2018-12-13T13:39:35Z</time>
      </trkpt>
      <trkpt lat="49.6037" lon="4.96011">
        <ele>211.63</ele>
        <time>2018-12-13T13:39:49Z</time>
      </trkpt>
      <trkpt lat="49.60383" lon="4.96014">
        <ele>212.11</ele>
        <time>2018-12-13T13:40:02Z</time>
      </trkpt>
      <trkpt lat="49.60401" lon="4.96017">
        <ele>212.59</ele>
        <time>2018-12-13T13:40:17Z</time>
      </trkpt>
      <trkpt lat="49.60418" lon="4.96022">
        <ele>210.67</ele>
        <time>2018-12-13T13:40:33Z</time>
      </trkpt>
      <trkpt lat="49.60429" lon="4.9602">
        <ele>209.22</ele>
        <time>2018-12-13T13:40:44Z</time>
      </trkpt>
      <trkpt lat="49.6043" lon="4.95996">
        <ele>207.3</ele>
        <time>2018-12-13T13:40:58Z</time>
      </trkpt>
      <trkpt lat="49.60431" lon="4.95966">
        <ele>203.94</ele>
        <time>2018-12-13T13:41:15Z</time>
      </trkpt>
      <trkpt lat="49.6043" lon="4.95963">
        <ele>203.46</ele>
        <time>2018-12-13T13:41:17Z</time>
      </trkpt>
      <trkpt lat="49.60429" lon="4.95961">
        <ele>202.98</ele>
        <time>2018-12-13T13:41:19Z</time>
      </trkpt>
      <trkpt lat="49.60426" lon="4.95955">
        <ele>201.53</ele>
        <time>2018-12-13T13:41:24Z</time>
      </trkpt>
      <trkpt lat="49.60411" lon="4.95941">
        <ele>198.17</ele>
        <time>2018-12-13T13:41:41Z</time>
      </trkpt>
      <trkpt lat="49.60394" lon="4.9593">
        <ele>196.73</ele>
        <time>2018-12-13T13:41:58Z</time>
      </trkpt>
      <trkpt lat="49.60379" lon="4.95918">
        <ele>195.28</ele>
        <time>2018-12-13T13:42:14Z</time>
      </trkpt>
      <trkpt lat="49.60369" lon="4.95905">
        <ele>193.36</ele>
        <time>2018-12-13T13:42:26Z</time>
      </trkpt>
      <trkpt lat="49.60368" lon="4.95901">
        <ele>192.4</ele>
        <time>2018-12-13T13:42:28Z</time>
      </trkpt>
      <trkpt lat="49.60361" lon="4.95882">
        <ele>185.19</ele>
        <time>2018-12-13T13:42:43Z</time>
      </trkpt>
      <trkpt lat="49.60357" lon="4.95866">
        <ele>177.5</ele>
        <time>2018-12-13T13:42:58Z</time>
      </trkpt>
      <trkpt lat="49.60346" lon="4.95854">
        <ele>174.62</ele>
        <time>2018-12-13T13:43:12Z</time>
      </trkpt>
      <trkpt lat="49.60344" lon="4.95853">
        <ele>175.1</ele>
        <time>2018-12-13T13:43:14Z</time>
      </trkpt>
      <trkpt lat="49.60334" lon="4.95845">
        <ele>177.02</ele>
        <time>2018-12-13T13:43:23Z</time>
      </trkpt>
      <trkpt lat="49.60332" lon="4.95842">
        <ele>177.5</ele>
        <time>2018-12-13T13:43:25Z</time>
      </trkpt>
      <trkpt lat="49.60327" lon="4.95827">
        <ele>178.46</ele>
        <time>2018-12-13T13:43:40Z</time>
      </trkpt>
      <trkpt lat="49.60327" lon="4.95812">
        <ele>182.31</ele>
        <time>2018-12-13T13:43:57Z</time>
      </trkpt>
      <trkpt lat="49.60326" lon="4.95812">
        <ele>182.31</ele>
        <time>2018-12-13T13:43:58Z</time>
      </trkpt>
      <trkpt lat="49.60325" lon="4.95808">
        <ele>182.31</ele>
        <time>2018-12-13T13:44:00Z</time>
      </trkpt>
      <trkpt lat="49.60319" lon="4.958">
        <ele>182.31</ele>
        <time>2018-12-13T13:44:05Z</time>
      </trkpt>
      <trkpt lat="49.60319" lon="4.95789">
        <ele>182.79</ele>
        <time>2018-12-13T13:44:11Z</time>
      </trkpt>
      <trkpt lat="49.60327" lon="4.95756">
        <ele>184.71</ele>
        <time>2018-12-13T13:44:30Z</time>
      </trkpt>
      <trkpt lat="49.60336" lon="4.95725">
        <ele>180.87</ele>
        <time>2018-12-13T13:44:48Z</time>
      </trkpt>
      <trkpt lat="49.60335" lon="4.95723">
        <ele>181.35</ele>
        <time>2018-12-13T13:44:51Z</time>
      </trkpt>
      <trkpt lat="49.60309" lon="4.95716">
        <ele>184.71</ele>
        <time>2018-12-13T13:45:11Z</time>
      </trkpt>
      <trkpt lat="49.60287" lon="4.95715">
        <ele>184.71</ele>
        <time>2018-12-13T13:45:29Z</time>
      </trkpt>
      <trkpt lat="49.60268" lon="4.95706">
        <ele>184.23</ele>
        <time>2018-12-13T13:45:48Z</time>
      </trkpt>
      <trkpt lat="49.60269" lon="4.95696">
        <ele>181.35</ele>
        <time>2018-12-13T13:45:55Z</time>
      </trkpt>
      <trkpt lat="49.60266" lon="4.95665">
        <ele>178.94</ele>
        <time>2018-12-13T13:46:13Z</time>
      </trkpt>
      <trkpt lat="49.60267" lon="4.95651">
        <ele>178.94</ele>
        <time>2018-12-13T13:46:21Z</time>
      </trkpt>
      <trkpt lat="49.60269" lon="4.95639">
        <ele>179.42</ele>
        <time>2018-12-13T13:46:28Z</time>
      </trkpt>
      <trkpt lat="49.60269" lon="4.95636">
        <ele>179.42</ele>
        <time>2018-12-13T13:46:30Z</time>
      </trkpt>
      <trkpt lat="49.60267" lon="4.95617">
        <ele>179.42</ele>
        <time>2018-12-13T13:46:41Z</time>
      </trkpt>
      <trkpt lat="49.6027" lon="4.95601">
        <ele>178.94</ele>
        <time>2018-12-13T13:46:50Z</time>
      </trkpt>
      <trkpt lat="49.60269" lon="4.95591">
        <ele>179.42</ele>
        <time>2018-12-13T13:46:57Z</time>
      </trkpt>
      <trkpt lat="49.60253" lon="4.9559">
        <ele>181.35</ele>
        <time>2018-12-13T13:47:15Z</time>
      </trkpt>
      <trkpt lat="49.60236" lon="4.95581">
        <ele>186.15</ele>
        <time>2018-12-13T13:47:28Z</time>
      </trkpt>
      <trkpt lat="49.60232" lon="4.95582">
        <ele>186.15</ele>
        <time>2018-12-13T13:47:31Z</time>
      </trkpt>
      <trkpt lat="49.60223" lon="4.95569">
        <ele>185.19</ele>
        <time>2018-12-13T13:47:43Z</time>
      </trkpt>
      <trkpt lat="49.60197" lon="4.95568">
        <ele>185.19</ele>
        <time>2018-12-13T13:48:01Z</time>
      </trkpt>
      <trkpt lat="49.60172" lon="4.95574">
        <ele>191.44</ele>
        <time>2018-12-13T13:48:20Z</time>
      </trkpt>
      <trkpt lat="49.60149" lon="4.95571">
        <ele>190.96</ele>
        <time>2018-12-13T13:48:41Z</time>
      </trkpt>
      <trkpt lat="49.6013" lon="4.95569">
        <ele>191.92</ele>
        <time>2018-12-13T13:48:57Z</time>
      </trkpt>
      <trkpt lat="49.60105" lon="4.95563">
        <ele>192.4</ele>
        <time>2018-12-13T13:49:16Z</time>
      </trkpt>
      <trkpt lat="49.60084" lon="4.95556">
        <ele>194.32</ele>
        <time>2018-12-13T13:49:36Z</time>
      </trkpt>
      <trkpt lat="49.60065" lon="4.95551">
        <ele>193.84</ele>
        <time>2018-12-13T13:49:51Z</time>
      </trkpt>
      <trkpt lat="49.60046" lon="4.95531">
        <ele>195.77</ele>
        <time>2018-12-13T13:50:08Z</time>
      </trkpt>
      <trkpt lat="49.60031" lon="4.95522">
        <ele>192.88</ele>
        <time>2018-12-13T13:50:24Z</time>
      </trkpt>
      <trkpt lat="49.60029" lon="4.95521">
        <ele>192.88</ele>
        <time>2018-12-13T13:50:26Z</time>
      </trkpt>
      <trkpt lat="49.60012" lon="4.95512">
        <ele>193.36</ele>
        <time>2018-12-13T13:50:41Z</time>
      </trkpt>
      <trkpt lat="49.59992" lon="4.95496">
        <ele>196.25</ele>
        <time>2018-12-13T13:50:57Z</time>
      </trkpt>
      <trkpt lat="49.59979" lon="4.95492">
        <ele>192.88</ele>
        <time>2018-12-13T13:51:11Z</time>
      </trkpt>
      <trkpt lat="49.59961" lon="4.95481">
        <ele>188.08</ele>
        <time>2018-12-13T13:51:27Z</time>
      </trkpt>
      <trkpt lat="49.59944" lon="4.95475">
        <ele>186.15</ele>
        <time>2018-12-13T13:51:44Z</time>
      </trkpt>
      <trkpt lat="49.59928" lon="4.95465">
        <ele>185.19</ele>
        <time>2018-12-13T13:52:00Z</time>
      </trkpt>
      <trkpt lat="49.59907" lon="4.95466">
        <ele>181.83</ele>
        <time>2018-12-13T13:52:17Z</time>
      </trkpt>
      <trkpt lat="49.59885" lon="4.9547">
        <ele>184.23</ele>
        <time>2018-12-13T13:52:35Z</time>
      </trkpt>
      <trkpt lat="49.59865" lon="4.95478">
        <ele>188.08</ele>
        <time>2018-12-13T13:52:53Z</time>
      </trkpt>
      <trkpt lat="49.59841" lon="4.9547">
        <ele>187.59</ele>
        <time>2018-12-13T13:53:13Z</time>
      </trkpt>
      <trkpt lat="49.5982" lon="4.95467">
        <ele>188.56</ele>
        <time>2018-12-13T13:53:30Z</time>
      </trkpt>
      <trkpt lat="49.59796" lon="4.95463">
        <ele>190</ele>
        <time>2018-12-13T13:53:51Z</time>
      </trkpt>
      <trkpt lat="49.59776" lon="4.9546">
        <ele>191.44</ele>
        <time>2018-12-13T13:54:11Z</time>
      </trkpt>
      <trkpt lat="49.59755" lon="4.95459">
        <ele>195.28</ele>
        <time>2018-12-13T13:54:29Z</time>
      </trkpt>
      <trkpt lat="49.59729" lon="4.95457">
        <ele>198.17</ele>
        <time>2018-12-13T13:54:51Z</time>
      </trkpt>
      <trkpt lat="49.59707" lon="4.95456">
        <ele>200.57</ele>
        <time>2018-12-13T13:55:10Z</time>
      </trkpt>
      <trkpt lat="49.59688" lon="4.95455">
        <ele>199.61</ele>
        <time>2018-12-13T13:55:26Z</time>
      </trkpt>
      <trkpt lat="49.59664" lon="4.95452">
        <ele>199.13</ele>
        <time>2018-12-13T13:55:47Z</time>
      </trkpt>
      <trkpt lat="49.59643" lon="4.9545">
        <ele>199.13</ele>
        <time>2018-12-13T13:56:05Z</time>
      </trkpt>
      <trkpt lat="49.59633" lon="4.9545">
        <ele>199.61</ele>
        <time>2018-12-13T13:56:17Z</time>
      </trkpt>
      <trkpt lat="49.59616" lon="4.95433">
        <ele>201.05</ele>
        <time>2018-12-13T13:56:36Z</time>
      </trkpt>
      <trkpt lat="49.59591" lon="4.95425">
        <ele>204.9</ele>
        <time>2018-12-13T13:56:55Z</time>
      </trkpt>
      <trkpt lat="49.5957" lon="4.95423">
        <ele>207.3</ele>
        <time>2018-12-13T13:57:14Z</time>
      </trkpt>
      <trkpt lat="49.59549" lon="4.95422">
        <ele>209.22</ele>
        <time>2018-12-13T13:57:35Z</time>
      </trkpt>
      <trkpt lat="49.59531" lon="4.95412">
        <ele>211.15</ele>
        <time>2018-12-13T13:57:55Z</time>
      </trkpt>
      <trkpt lat="49.59532" lon="4.9541">
        <ele>211.63</ele>
        <time>2018-12-13T13:57:57Z</time>
      </trkpt>
      <trkpt lat="49.59536" lon="4.95404">
        <ele>211.63</ele>
        <time>2018-12-13T13:58:03Z</time>
      </trkpt>
      <trkpt lat="49.59554" lon="4.95395">
        <ele>211.63</ele>
        <time>2018-12-13T13:58:20Z</time>
      </trkpt>
      <trkpt lat="49.59568" lon="4.95388">
        <ele>214.99</ele>
        <time>2018-12-13T13:58:36Z</time>
      </trkpt>
      <trkpt lat="49.59573" lon="4.95386">
        <ele>215.95</ele>
        <time>2018-12-13T13:58:40Z</time>
      </trkpt>
      <trkpt lat="49.5959" lon="4.95375">
        <ele>216.43</ele>
        <time>2018-12-13T13:58:57Z</time>
      </trkpt>
      <trkpt lat="49.59609" lon="4.95366">
        <ele>214.99</ele>
        <time>2018-12-13T13:59:13Z</time>
      </trkpt>
      <trkpt lat="49.59622" lon="4.95357">
        <ele>215.95</ele>
        <time>2018-12-13T13:59:27Z</time>
      </trkpt>
      <trkpt lat="49.59633" lon="4.95349">
        <ele>217.4</ele>
        <time>2018-12-13T13:59:40Z</time>
      </trkpt>
      <trkpt lat="49.59647" lon="4.95343">
        <ele>221.72</ele>
        <time>2018-12-13T13:59:56Z</time>
      </trkpt>
      <trkpt lat="49.59657" lon="4.95339">
        <ele>225.57</ele>
        <time>2018-12-13T14:00:08Z</time>
      </trkpt>
      <trkpt lat="49.59668" lon="4.95334">
        <ele>229.41</ele>
        <time>2018-12-13T14:00:21Z</time>
      </trkpt>
      <trkpt lat="49.59683" lon="4.95326">
        <ele>234.22</ele>
        <time>2018-12-13T14:00:37Z</time>
      </trkpt>
      <trkpt lat="49.59697" lon="4.95314">
        <ele>236.62</ele>
        <time>2018-12-13T14:00:53Z</time>
      </trkpt>
      <trkpt lat="49.59715" lon="4.95299">
        <ele>235.18</ele>
        <time>2018-12-13T14:01:09Z</time>
      </trkpt>
      <trkpt lat="49.59733" lon="4.9528">
        <ele>232.3</ele>
        <time>2018-12-13T14:01:26Z</time>
      </trkpt>
      <trkpt lat="49.59748" lon="4.95269">
        <ele>231.81</ele>
        <time>2018-12-13T14:01:41Z</time>
      </trkpt>
      <trkpt lat="49.5976" lon="4.9526">
        <ele>230.85</ele>
        <time>2018-12-13T14:01:54Z</time>
      </trkpt>
      <trkpt lat="49.59773" lon="4.95244">
        <ele>229.41</ele>
        <time>2018-12-13T14:02:08Z</time>
      </trkpt>
      <trkpt lat="49.5979" lon="4.9523">
        <ele>232.78</ele>
        <time>2018-12-13T14:02:27Z</time>
      </trkpt>
      <trkpt lat="49.59802" lon="4.95218">
        <ele>236.62</ele>
        <time>2018-12-13T14:02:42Z</time>
      </trkpt>
      <trkpt lat="49.59816" lon="4.95208">
        <ele>240.47</ele>
        <time>2018-12-13T14:02:59Z</time>
      </trkpt>
      <trkpt lat="49.59828" lon="4.95198">
        <ele>242.39</ele>
        <time>2018-12-13T14:03:13Z</time>
      </trkpt>
      <trkpt lat="49.59842" lon="4.9519">
        <ele>247.68</ele>
        <time>2018-12-13T14:03:29Z</time>
      </trkpt>
      <trkpt lat="49.59854" lon="4.95186">
        <ele>251.04</ele>
        <time>2018-12-13T14:03:42Z</time>
      </trkpt>
      <trkpt lat="49.59863" lon="4.95185">
        <ele>252</ele>
        <time>2018-12-13T14:03:50Z</time>
      </trkpt>
      <trkpt lat="49.59877" lon="4.95184">
        <ele>253.44</ele>
        <time>2018-12-13T14:04:05Z</time>
      </trkpt>
      <trkpt lat="49.5989" lon="4.95181">
        <ele>254.89</ele>
        <time>2018-12-13T14:04:18Z</time>
      </trkpt>
      <trkpt lat="49.59906" lon="4.95186">
        <ele>257.77</ele>
        <time>2018-12-13T14:04:35Z</time>
      </trkpt>
      <trkpt lat="49.59924" lon="4.9518">
        <ele>256.81</ele>
        <time>2018-12-13T14:04:52Z</time>
      </trkpt>
      <trkpt lat="49.59938" lon="4.95181">
        <ele>256.81</ele>
        <time>2018-12-13T14:05:08Z</time>
      </trkpt>
      <trkpt lat="49.59955" lon="4.95187">
        <ele>257.29</ele>
        <time>2018-12-13T14:05:22Z</time>
      </trkpt>
      <trkpt lat="49.59967" lon="4.9519">
        <ele>258.25</ele>
        <time>2018-12-13T14:05:37Z</time>
      </trkpt>
      <trkpt lat="49.59982" lon="4.95198">
        <ele>258.25</ele>
        <time>2018-12-13T14:05:50Z</time>
      </trkpt>
      <trkpt lat="49.60002" lon="4.95205">
        <ele>261.14</ele>
        <time>2018-12-13T14:06:05Z</time>
      </trkpt>
      <trkpt lat="49.6002" lon="4.95203">
        <ele>260.65</ele>
        <time>2018-12-13T14:06:23Z</time>
      </trkpt>
      <trkpt lat="49.60036" lon="4.95205">
        <ele>264.02</ele>
        <time>2018-12-13T14:06:40Z</time>
      </trkpt>
      <trkpt lat="49.60051" lon="4.95202">
        <ele>267.38</ele>
        <time>2018-12-13T14:06:55Z</time>
      </trkpt>
      <trkpt lat="49.60066" lon="4.95183">
        <ele>266.9</ele>
        <time>2018-12-13T14:07:08Z</time>
      </trkpt>
      <trkpt lat="49.60083" lon="4.95162">
        <ele>264.98</ele>
        <time>2018-12-13T14:07:26Z</time>
      </trkpt>
      <trkpt lat="49.60098" lon="4.95138">
        <ele>259.69</ele>
        <time>2018-12-13T14:07:45Z</time>
      </trkpt>
      <trkpt lat="49.60107" lon="4.95117">
        <ele>258.25</ele>
        <time>2018-12-13T14:08:02Z</time>
      </trkpt>
      <trkpt lat="49.60109" lon="4.95108">
        <ele>257.77</ele>
        <time>2018-12-13T14:08:09Z</time>
      </trkpt>
      <trkpt lat="49.60113" lon="4.95084">
        <ele>254.41</ele>
        <time>2018-12-13T14:08:24Z</time>
      </trkpt>
      <trkpt lat="49.60121" lon="4.95059">
        <ele>251.52</ele>
        <time>2018-12-13T14:08:40Z</time>
      </trkpt>
      <trkpt lat="49.60125" lon="4.95047">
        <ele>250.56</ele>
        <time>2018-12-13T14:08:47Z</time>
      </trkpt>
      <trkpt lat="49.60129" lon="4.95036">
        <ele>251.04</ele>
        <time>2018-12-13T14:08:54Z</time>
      </trkpt>
      <trkpt lat="49.60135" lon="4.95013">
        <ele>250.56</ele>
        <time>2018-12-13T14:09:10Z</time>
      </trkpt>
      <trkpt lat="49.60137" lon="4.95003">
        <ele>251.04</ele>
        <time>2018-12-13T14:09:17Z</time>
      </trkpt>
      <trkpt lat="49.60141" lon="4.94973">
        <ele>250.08</ele>
        <time>2018-12-13T14:09:36Z</time>
      </trkpt>
      <trkpt lat="49.60147" lon="4.94947">
        <ele>250.56</ele>
        <time>2018-12-13T14:09:52Z</time>
      </trkpt>
      <trkpt lat="49.60152" lon="4.94918">
        <ele>248.16</ele>
        <time>2018-12-13T14:10:09Z</time>
      </trkpt>
      <trkpt lat="49.60155" lon="4.94899">
        <ele>247.2</ele>
        <time>2018-12-13T14:10:22Z</time>
      </trkpt>
      <trkpt lat="49.6016" lon="4.94874">
        <ele>246.23</ele>
        <time>2018-12-13T14:10:38Z</time>
      </trkpt>
      <trkpt lat="49.60165" lon="4.9485">
        <ele>245.27</ele>
        <time>2018-12-13T14:10:53Z</time>
      </trkpt>
      <trkpt lat="49.60168" lon="4.94841">
        <ele>246.72</ele>
        <time>2018-12-13T14:10:58Z</time>
      </trkpt>
      <trkpt lat="49.60168" lon="4.94838">
        <ele>246.72</ele>
        <time>2018-12-13T14:11:00Z</time>
      </trkpt>
      <trkpt lat="49.60171" lon="4.94828">
        <ele>247.68</ele>
        <time>2018-12-13T14:11:06Z</time>
      </trkpt>
      <trkpt lat="49.60172" lon="4.9482">
        <ele>247.68</ele>
        <time>2018-12-13T14:11:12Z</time>
      </trkpt>
      <trkpt lat="49.60174" lon="4.94812">
        <ele>248.64</ele>
        <time>2018-12-13T14:11:17Z</time>
      </trkpt>
      <trkpt lat="49.60181" lon="4.94788">
        <ele>250.56</ele>
        <time>2018-12-13T14:11:32Z</time>
      </trkpt>
      <trkpt lat="49.60189" lon="4.94762">
        <ele>251.52</ele>
        <time>2018-12-13T14:11:49Z</time>
      </trkpt>
      <trkpt lat="49.60191" lon="4.94753">
        <ele>252</ele>
        <time>2018-12-13T14:11:56Z</time>
      </trkpt>
      <trkpt lat="49.60195" lon="4.94737">
        <ele>253.93</ele>
        <time>2018-12-13T14:12:07Z</time>
      </trkpt>
      <trkpt lat="49.60201" lon="4.94708">
        <ele>254.89</ele>
        <time>2018-12-13T14:12:25Z</time>
      </trkpt>
      <trkpt lat="49.60203" lon="4.94689">
        <ele>259.69</ele>
        <time>2018-12-13T14:12:40Z</time>
      </trkpt>
      <trkpt lat="49.60206" lon="4.94657">
        <ele>263.54</ele>
        <time>2018-12-13T14:12:59Z</time>
      </trkpt>
      <trkpt lat="49.60207" lon="4.94652">
        <ele>263.54</ele>
        <time>2018-12-13T14:13:02Z</time>
      </trkpt>
      <trkpt lat="49.60209" lon="4.94623">
        <ele>266.42</ele>
        <time>2018-12-13T14:13:20Z</time>
      </trkpt>
      <trkpt lat="49.60211" lon="4.94594">
        <ele>268.35</ele>
        <time>2018-12-13T14:13:39Z</time>
      </trkpt>
      <trkpt lat="49.60216" lon="4.94569">
        <ele>268.83</ele>
        <time>2018-12-13T14:13:55Z</time>
      </trkpt>
      <trkpt lat="49.60223" lon="4.94538">
        <ele>268.83</ele>
        <time>2018-12-13T14:14:16Z</time>
      </trkpt>
      <trkpt lat="49.60224" lon="4.94537">
        <ele>268.83</ele>
        <time>2018-12-13T14:14:17Z</time>
      </trkpt>
      <trkpt lat="49.60242" lon="4.94519">
        <ele>269.79</ele>
        <time>2018-12-13T14:14:38Z</time>
      </trkpt>
      <trkpt lat="49.6026" lon="4.94508">
        <ele>270.75</ele>
        <time>2018-12-13T14:14:58Z</time>
      </trkpt>
      <trkpt lat="49.60262" lon="4.94521">
        <ele>270.27</ele>
        <time>2018-12-13T14:15:13Z</time>
      </trkpt>
      <trkpt lat="49.60261" lon="4.94521">
        <ele>269.79</ele>
        <time>2018-12-13T14:15:35Z</time>
      </trkpt>
      <trkpt lat="49.60262" lon="4.94521">
        <ele>270.75</ele>
        <time>2018-12-13T14:15:52Z</time>
      </trkpt>
      <trkpt lat="49.60261" lon="4.94521">
        <ele>270.75</ele>
        <time>2018-12-13T14:16:21Z</time>
      </trkpt>
      <trkpt lat="49.60262" lon="4.94521">
        <ele>270.75</ele>
        <time>2018-12-13T14:16:45Z</time>
      </trkpt>
      <trkpt lat="49.60261" lon="4.94521">
        <ele>270.75</ele>
        <time>2018-12-13T14:17:11Z</time>
      </trkpt>
      <trkpt lat="49.60261" lon="4.94521">
        <ele>270.75</ele>
        <time>2018-12-13T14:17:44Z</time>
      </trkpt>
      <trkpt lat="49.60261" lon="4.94521">
        <ele>270.75</ele>
        <time>2018-12-13T14:18:20Z</time>
      </trkpt>
      <trkpt lat="49.60261" lon="4.9452">
        <ele>270.75</ele>
        <time>2018-12-13T14:18:55Z</time>
      </trkpt>
      <trkpt lat="49.60262" lon="4.94519">
        <ele>272.19</ele>
        <time>2018-12-13T14:19:26Z</time>
      </trkpt>
      <trkpt lat="49.60262" lon="4.9452">
        <ele>273.63</ele>
        <time>2018-12-13T14:19:57Z</time>
      </trkpt>
      <trkpt lat="49.60262" lon="4.9452">
        <ele>273.63</ele>
        <time>2018-12-13T14:20:23Z</time>
      </trkpt>
      <trkpt lat="49.60262" lon="4.9452">
        <ele>273.15</ele>
        <time>2018-12-13T14:20:54Z</time>
      </trkpt>
      <trkpt lat="49.60262" lon="4.94521">
        <ele>273.63</ele>
        <time>2018-12-13T14:21:19Z</time>
      </trkpt>
      <trkpt lat="49.60262" lon="4.94521">
        <ele>274.11</ele>
        <time>2018-12-13T14:21:57Z</time>
      </trkpt>
      <trkpt lat="49.60262" lon="4.94521">
        <ele>274.11</ele>
        <time>2018-12-13T14:22:22Z</time>
      </trkpt>
      <trkpt lat="49.60263" lon="4.94521">
        <ele>275.07</ele>
        <time>2018-12-13T14:22:50Z</time>
      </trkpt>
      <trkpt lat="49.60262" lon="4.94521">
        <ele>275.56</ele>
        <time>2018-12-13T14:23:20Z</time>
      </trkpt>
      <trkpt lat="49.60261" lon="4.94522">
        <ele>275.56</ele>
        <time>2018-12-13T14:23:43Z</time>
      </trkpt>
      <trkpt lat="49.60261" lon="4.94522">
        <ele>275.07</ele>
        <time>2018-12-13T14:24:19Z</time>
      </trkpt>
      <trkpt lat="49.60261" lon="4.94522">
        <ele>275.56</ele>
        <time>2018-12-13T14:24:36Z</time>
      </trkpt>
      <trkpt lat="49.60261" lon="4.94522">
        <ele>275.07</ele>
        <time>2018-12-13T14:24:58Z</time>
      </trkpt>
      <trkpt lat="49.60261" lon="4.94522">
        <ele>274.11</ele>
        <time>2018-12-13T14:25:25Z</time>
      </trkpt>
      <trkpt lat="49.60261" lon="4.94522">
        <ele>274.11</ele>
        <time>2018-12-13T14:25:44Z</time>
      </trkpt>
      <trkpt lat="49.60262" lon="4.94522">
        <ele>273.63</ele>
        <time>2018-12-13T14:26:09Z</time>
      </trkpt>
      <trkpt lat="49.60263" lon="4.94528">
        <ele>274.11</ele>
        <time>2018-12-13T14:26:29Z</time>
      </trkpt>
      <trkpt lat="49.60268" lon="4.94549">
        <ele>273.63</ele>
        <time>2018-12-13T14:26:45Z</time>
      </trkpt>
      <trkpt lat="49.60274" lon="4.94579">
        <ele>274.59</ele>
        <time>2018-12-13T14:27:04Z</time>
      </trkpt>
      <trkpt lat="49.60283" lon="4.94609">
        <ele>272.19</ele>
        <time>2018-12-13T14:27:24Z</time>
      </trkpt>
      <trkpt lat="49.6029" lon="4.94637">
        <ele>271.71</ele>
        <time>2018-12-13T14:27:43Z</time>
      </trkpt>
      <trkpt lat="49.60296" lon="4.94667">
        <ele>271.71</ele>
        <time>2018-12-13T14:28:02Z</time>
      </trkpt>
      <trkpt lat="49.60301" lon="4.94694">
        <ele>271.71</ele>
        <time>2018-12-13T14:28:20Z</time>
      </trkpt>
      <trkpt lat="49.60305" lon="4.94719">
        <ele>270.27</ele>
        <time>2018-12-13T14:28:36Z</time>
      </trkpt>
      <trkpt lat="49.6031" lon="4.94743">
        <ele>268.35</ele>
        <time>2018-12-13T14:28:52Z</time>
      </trkpt>
      <trkpt lat="49.60314" lon="4.94771">
        <ele>268.35</ele>
        <time>2018-12-13T14:29:09Z</time>
      </trkpt>
      <trkpt lat="49.60321" lon="4.94792">
        <ele>266.42</ele>
        <time>2018-12-13T14:29:25Z</time>
      </trkpt>
      <trkpt lat="49.6033" lon="4.94817">
        <ele>260.65</ele>
        <time>2018-12-13T14:29:44Z</time>
      </trkpt>
      <trkpt lat="49.60339" lon="4.94846">
        <ele>256.33</ele>
        <time>2018-12-13T14:30:03Z</time>
      </trkpt>
      <trkpt lat="49.60346" lon="4.9487">
        <ele>254.41</ele>
        <time>2018-12-13T14:30:21Z</time>
      </trkpt>
      <trkpt lat="49.60352" lon="4.94898">
        <ele>251.52</ele>
        <time>2018-12-13T14:30:40Z</time>
      </trkpt>
      <trkpt lat="49.60356" lon="4.94926">
        <ele>249.12</ele>
        <time>2018-12-13T14:30:58Z</time>
      </trkpt>
      <trkpt lat="49.60361" lon="4.94949">
        <ele>248.16</ele>
        <time>2018-12-13T14:31:14Z</time>
      </trkpt>
      <trkpt lat="49.60363" lon="4.94972">
        <ele>245.75</ele>
        <time>2018-12-13T14:31:29Z</time>
      </trkpt>
      <trkpt lat="49.60365" lon="4.94987">
        <ele>243.35</ele>
        <time>2018-12-13T14:31:38Z</time>
      </trkpt>
      <trkpt lat="49.6037" lon="4.95017">
        <ele>239.51</ele>
        <time>2018-12-13T14:31:57Z</time>
      </trkpt>
      <trkpt lat="49.60375" lon="4.95046">
        <ele>237.1</ele>
        <time>2018-12-13T14:32:17Z</time>
      </trkpt>
      <trkpt lat="49.60378" lon="4.95074">
        <ele>236.14</ele>
        <time>2018-12-13T14:32:36Z</time>
      </trkpt>
      <trkpt lat="49.60384" lon="4.951">
        <ele>233.74</ele>
        <time>2018-12-13T14:32:55Z</time>
      </trkpt>
      <trkpt lat="49.60387" lon="4.95127">
        <ele>230.37</ele>
        <time>2018-12-13T14:33:12Z</time>
      </trkpt>
      <trkpt lat="49.60394" lon="4.95156">
        <ele>226.53</ele>
        <time>2018-12-13T14:33:32Z</time>
      </trkpt>
      <trkpt lat="49.60401" lon="4.95173">
        <ele>226.05</ele>
        <time>2018-12-13T14:33:47Z</time>
      </trkpt>
      <trkpt lat="49.60409" lon="4.95196">
        <ele>223.64</ele>
        <time>2018-12-13T14:34:03Z</time>
      </trkpt>
      <trkpt lat="49.60422" lon="4.95215">
        <ele>219.8</ele>
        <time>2018-12-13T14:34:21Z</time>
      </trkpt>
      <trkpt lat="49.60432" lon="4.95231">
        <ele>215.47</ele>
        <time>2018-12-13T14:34:38Z</time>
      </trkpt>
      <trkpt lat="49.60443" lon="4.95249">
        <ele>214.03</ele>
        <time>2018-12-13T14:34:54Z</time>
      </trkpt>
      <trkpt lat="49.60446" lon="4.95254">
        <ele>214.51</ele>
        <time>2018-12-13T14:34:59Z</time>
      </trkpt>
      <trkpt lat="49.60461" lon="4.95269">
        <ele>212.59</ele>
        <time>2018-12-13T14:35:18Z</time>
      </trkpt>
      <trkpt lat="49.60463" lon="4.95272">
        <ele>212.59</ele>
        <time>2018-12-13T14:35:21Z</time>
      </trkpt>
      <trkpt lat="49.60477" lon="4.95295">
        <ele>209.22</ele>
        <time>2018-12-13T14:35:41Z</time>
      </trkpt>
      <trkpt lat="49.60485" lon="4.95307">
        <ele>208.74</ele>
        <time>2018-12-13T14:35:55Z</time>
      </trkpt>
      <trkpt lat="49.60495" lon="4.95328">
        <ele>205.86</ele>
        <time>2018-12-13T14:36:13Z</time>
      </trkpt>
      <trkpt lat="49.60501" lon="4.95347">
        <ele>204.42</ele>
        <time>2018-12-13T14:36:28Z</time>
      </trkpt>
      <trkpt lat="49.60503" lon="4.95354">
        <ele>203.46</ele>
        <time>2018-12-13T14:36:34Z</time>
      </trkpt>
      <trkpt lat="49.60511" lon="4.95374">
        <ele>202.01</ele>
        <time>2018-12-13T14:36:49Z</time>
      </trkpt>
      <trkpt lat="49.60519" lon="4.95394">
        <ele>200.57</ele>
        <time>2018-12-13T14:37:02Z</time>
      </trkpt>
      <trkpt lat="49.60523" lon="4.95409">
        <ele>198.65</ele>
        <time>2018-12-13T14:37:15Z</time>
      </trkpt>
      <trkpt lat="49.60527" lon="4.95419">
        <ele>197.21</ele>
        <time>2018-12-13T14:37:29Z</time>
      </trkpt>
      <trkpt lat="49.60533" lon="4.95445">
        <ele>195.77</ele>
        <time>2018-12-13T14:37:46Z</time>
      </trkpt>
      <trkpt lat="49.60542" lon="4.95454">
        <ele>194.8</ele>
        <time>2018-12-13T14:38:00Z</time>
      </trkpt>
      <trkpt lat="49.60553" lon="4.95453">
        <ele>195.28</ele>
        <time>2018-12-13T14:38:11Z</time>
      </trkpt>
      <trkpt lat="49.60575" lon="4.95447">
        <ele>193.84</ele>
        <time>2018-12-13T14:38:32Z</time>
      </trkpt>
      <trkpt lat="49.6059" lon="4.95443">
        <ele>190.48</ele>
        <time>2018-12-13T14:38:49Z</time>
      </trkpt>
      <trkpt lat="49.60608" lon="4.95439">
        <ele>188.08</ele>
        <time>2018-12-13T14:39:07Z</time>
      </trkpt>
      <trkpt lat="49.60622" lon="4.95436">
        <ele>186.63</ele>
        <time>2018-12-13T14:39:21Z</time>
      </trkpt>
      <trkpt lat="49.60647" lon="4.9543">
        <ele>188.08</ele>
        <time>2018-12-13T14:39:39Z</time>
      </trkpt>
      <trkpt lat="49.60667" lon="4.95424">
        <ele>188.56</ele>
        <time>2018-12-13T14:39:58Z</time>
      </trkpt>
      <trkpt lat="49.6068" lon="4.9542">
        <ele>186.63</ele>
        <time>2018-12-13T14:40:13Z</time>
      </trkpt>
      <trkpt lat="49.607" lon="4.95416">
        <ele>185.67</ele>
        <time>2018-12-13T14:40:29Z</time>
      </trkpt>
      <trkpt lat="49.60717" lon="4.95412">
        <ele>185.19</ele>
        <time>2018-12-13T14:40:44Z</time>
      </trkpt>
      <trkpt lat="49.6073" lon="4.95409">
        <ele>180.87</ele>
        <time>2018-12-13T14:40:59Z</time>
      </trkpt>
      <trkpt lat="49.60752" lon="4.95408">
        <ele>183.75</ele>
        <time>2018-12-13T14:41:16Z</time>
      </trkpt>
      <trkpt lat="49.60772" lon="4.95407">
        <ele>181.83</ele>
        <time>2018-12-13T14:41:34Z</time>
      </trkpt>
      <trkpt lat="49.60785" lon="4.95406">
        <ele>179.9</ele>
        <time>2018-12-13T14:41:47Z</time>
      </trkpt>
      <trkpt lat="49.60802" lon="4.9541">
        <ele>178.46</ele>
        <time>2018-12-13T14:42:04Z</time>
      </trkpt>
      <trkpt lat="49.60821" lon="4.95417">
        <ele>177.02</ele>
        <time>2018-12-13T14:42:23Z</time>
      </trkpt>
      <trkpt lat="49.60826" lon="4.95422">
        <ele>179.42</ele>
        <time>2018-12-13T14:42:28Z</time>
      </trkpt>
      <trkpt lat="49.60843" lon="4.95434">
        <ele>180.38</ele>
        <time>2018-12-13T14:42:46Z</time>
      </trkpt>
      <trkpt lat="49.60854" lon="4.95448">
        <ele>180.87</ele>
        <time>2018-12-13T14:43:00Z</time>
      </trkpt>
      <trkpt lat="49.60865" lon="4.95452">
        <ele>185.19</ele>
        <time>2018-12-13T14:43:18Z</time>
      </trkpt>
      <trkpt lat="49.60865" lon="4.95453">
        <ele>184.71</ele>
        <time>2018-12-13T14:43:37Z</time>
      </trkpt>
      <trkpt lat="49.60865" lon="4.95454">
        <ele>184.71</ele>
        <time>2018-12-13T14:43:58Z</time>
      </trkpt>
      <trkpt lat="49.60865" lon="4.95453">
        <ele>184.71</ele>
        <time>2018-12-13T14:44:19Z</time>
      </trkpt>
      <trkpt lat="49.60864" lon="4.95454">
        <ele>185.67</ele>
        <time>2018-12-13T14:44:36Z</time>
      </trkpt>
      <trkpt lat="49.60864" lon="4.95452">
        <ele>185.19</ele>
        <time>2018-12-13T14:44:57Z</time>
      </trkpt>
      <trkpt lat="49.60877" lon="4.95453">
        <ele>186.63</ele>
        <time>2018-12-13T14:45:11Z</time>
      </trkpt>
      <trkpt lat="49.609" lon="4.95462">
        <ele>190</ele>
        <time>2018-12-13T14:45:31Z</time>
      </trkpt>
      <trkpt lat="49.60922" lon="4.95473">
        <ele>190.96</ele>
        <time>2018-12-13T14:45:52Z</time>
      </trkpt>
      <trkpt lat="49.6094" lon="4.9548">
        <ele>187.59</ele>
        <time>2018-12-13T14:46:11Z</time>
      </trkpt>
      <trkpt lat="49.60958" lon="4.9549">
        <ele>187.59</ele>
        <time>2018-12-13T14:46:29Z</time>
      </trkpt>
      <trkpt lat="49.60977" lon="4.95498">
        <ele>187.59</ele>
        <time>2018-12-13T14:46:48Z</time>
      </trkpt>
      <trkpt lat="49.60991" lon="4.95508">
        <ele>185.67</ele>
        <time>2018-12-13T14:47:04Z</time>
      </trkpt>
      <trkpt lat="49.61009" lon="4.95519">
        <ele>185.67</ele>
        <time>2018-12-13T14:47:21Z</time>
      </trkpt>
      <trkpt lat="49.61024" lon="4.95526">
        <ele>185.67</ele>
        <time>2018-12-13T14:47:37Z</time>
      </trkpt>
      <trkpt lat="49.61042" lon="4.95535">
        <ele>186.63</ele>
        <time>2018-12-13T14:47:53Z</time>
      </trkpt>
      <trkpt lat="49.61055" lon="4.9554">
        <ele>190</ele>
        <time>2018-12-13T14:48:05Z</time>
      </trkpt>
      <trkpt lat="49.61076" lon="4.95538">
        <ele>192.88</ele>
        <time>2018-12-13T14:48:21Z</time>
      </trkpt>
      <trkpt lat="49.61092" lon="4.95526">
        <ele>193.36</ele>
        <time>2018-12-13T14:48:37Z</time>
      </trkpt>
      <trkpt lat="49.611" lon="4.95523">
        <ele>195.77</ele>
        <time>2018-12-13T14:48:47Z</time>
      </trkpt>
      <trkpt lat="49.61122" lon="4.95526">
        <ele>198.65</ele>
        <time>2018-12-13T14:49:05Z</time>
      </trkpt>
      <trkpt lat="49.61133" lon="4.9553">
        <ele>197.69</ele>
        <time>2018-12-13T14:49:17Z</time>
      </trkpt>
      <trkpt lat="49.61153" lon="4.95539">
        <ele>197.69</ele>
        <time>2018-12-13T14:49:33Z</time>
      </trkpt>
      <trkpt lat="49.61157" lon="4.95541">
        <ele>198.65</ele>
        <time>2018-12-13T14:49:37Z</time>
      </trkpt>
      <trkpt lat="49.61174" lon="4.95543">
        <ele>196.73</ele>
        <time>2018-12-13T14:49:52Z</time>
      </trkpt>
      <trkpt lat="49.61178" lon="4.95544">
        <ele>196.25</ele>
        <time>2018-12-13T14:49:56Z</time>
      </trkpt>
      <trkpt lat="49.61192" lon="4.95547">
        <ele>195.28</ele>
        <time>2018-12-13T14:50:11Z</time>
      </trkpt>
      <trkpt lat="49.6121" lon="4.95554">
        <ele>197.21</ele>
        <time>2018-12-13T14:50:27Z</time>
      </trkpt>
      <trkpt lat="49.61215" lon="4.95558">
        <ele>197.21</ele>
        <time>2018-12-13T14:50:32Z</time>
      </trkpt>
      <trkpt lat="49.61235" lon="4.95565">
        <ele>196.25</ele>
        <time>2018-12-13T14:50:50Z</time>
      </trkpt>
      <trkpt lat="49.61251" lon="4.95576">
        <ele>194.32</ele>
        <time>2018-12-13T14:51:05Z</time>
      </trkpt>
      <trkpt lat="49.61263" lon="4.95582">
        <ele>194.32</ele>
        <time>2018-12-13T14:51:20Z</time>
      </trkpt>
      <trkpt lat="49.61278" lon="4.95589">
        <ele>188.56</ele>
        <time>2018-12-13T14:51:35Z</time>
      </trkpt>
      <trkpt lat="49.61281" lon="4.95592">
        <ele>187.11</ele>
        <time>2018-12-13T14:51:39Z</time>
      </trkpt>
      <trkpt lat="49.613" lon="4.95605">
        <ele>190</ele>
        <time>2018-12-13T14:51:57Z</time>
      </trkpt>
      <trkpt lat="49.61307" lon="4.9561">
        <ele>188.56</ele>
        <time>2018-12-13T14:52:05Z</time>
      </trkpt>
      <trkpt lat="49.61319" lon="4.95621">
        <ele>186.63</ele>
        <time>2018-12-13T14:52:16Z</time>
      </trkpt>
      <trkpt lat="49.61327" lon="4.95626">
        <ele>186.15</ele>
        <time>2018-12-13T14:52:25Z</time>
      </trkpt>
      <trkpt lat="49.6133" lon="4.9563">
        <ele>187.11</ele>
        <time>2018-12-13T14:52:28Z</time>
      </trkpt>
      <trkpt lat="49.61337" lon="4.95648">
        <ele>188.56</ele>
        <time>2018-12-13T14:52:42Z</time>
      </trkpt>
      <trkpt lat="49.61345" lon="4.95667">
        <ele>188.08</ele>
        <time>2018-12-13T14:52:57Z</time>
      </trkpt>
      <trkpt lat="49.61347" lon="4.95673">
        <ele>188.08</ele>
        <time>2018-12-13T14:53:01Z</time>
      </trkpt>
      <trkpt lat="49.6135" lon="4.95685">
        <ele>187.11</ele>
        <time>2018-12-13T14:53:09Z</time>
      </trkpt>
      <trkpt lat="49.61361" lon="4.95707">
        <ele>186.15</ele>
        <time>2018-12-13T14:53:25Z</time>
      </trkpt>
      <trkpt lat="49.61363" lon="4.9571">
        <ele>185.67</ele>
        <time>2018-12-13T14:53:28Z</time>
      </trkpt>
      <trkpt lat="49.61368" lon="4.9572">
        <ele>183.75</ele>
        <time>2018-12-13T14:53:35Z</time>
      </trkpt>
      <trkpt lat="49.61381" lon="4.95732">
        <ele>185.67</ele>
        <time>2018-12-13T14:53:49Z</time>
      </trkpt>
      <trkpt lat="49.61394" lon="4.95746">
        <ele>184.71</ele>
        <time>2018-12-13T14:54:04Z</time>
      </trkpt>
      <trkpt lat="49.61405" lon="4.95754">
        <ele>185.67</ele>
        <time>2018-12-13T14:54:15Z</time>
      </trkpt>
      <trkpt lat="49.61415" lon="4.95762">
        <ele>185.67</ele>
        <time>2018-12-13T14:54:26Z</time>
      </trkpt>
      <trkpt lat="49.61429" lon="4.95779">
        <ele>187.59</ele>
        <time>2018-12-13T14:54:41Z</time>
      </trkpt>
      <trkpt lat="49.61443" lon="4.95797">
        <ele>190</ele>
        <time>2018-12-13T14:54:56Z</time>
      </trkpt>
      <trkpt lat="49.61458" lon="4.9581">
        <ele>193.84</ele>
        <time>2018-12-13T14:55:11Z</time>
      </trkpt>
      <trkpt lat="49.6147" lon="4.95821">
        <ele>196.25</ele>
        <time>2018-12-13T14:55:25Z</time>
      </trkpt>
      <trkpt lat="49.61485" lon="4.95831">
        <ele>195.77</ele>
        <time>2018-12-13T14:55:41Z</time>
      </trkpt>
      <trkpt lat="49.61498" lon="4.95839">
        <ele>194.8</ele>
        <time>2018-12-13T14:55:54Z</time>
      </trkpt>
      <trkpt lat="49.61515" lon="4.95848">
        <ele>193.36</ele>
        <time>2018-12-13T14:56:11Z</time>
      </trkpt>
      <trkpt lat="49.61529" lon="4.95855">
        <ele>193.84</ele>
        <time>2018-12-13T14:56:25Z</time>
      </trkpt>
      <trkpt lat="49.61543" lon="4.95864">
        <ele>194.32</ele>
        <time>2018-12-13T14:56:40Z</time>
      </trkpt>
      <trkpt lat="49.61546" lon="4.95866">
        <ele>193.84</ele>
        <time>2018-12-13T14:56:43Z</time>
      </trkpt>
      <trkpt lat="49.61564" lon="4.95873">
        <ele>193.84</ele>
        <time>2018-12-13T14:57:00Z</time>
      </trkpt>
      <trkpt lat="49.61579" lon="4.95884">
        <ele>192.4</ele>
        <time>2018-12-13T14:57:15Z</time>
      </trkpt>
      <trkpt lat="49.61596" lon="4.95897">
        <ele>194.32</ele>
        <time>2018-12-13T14:57:30Z</time>
      </trkpt>
      <trkpt lat="49.61603" lon="4.95901">
        <ele>192.88</ele>
        <time>2018-12-13T14:57:37Z</time>
      </trkpt>
      <trkpt lat="49.61615" lon="4.95906">
        <ele>192.88</ele>
        <time>2018-12-13T14:57:47Z</time>
      </trkpt>
      <trkpt lat="49.61633" lon="4.9592">
        <ele>190</ele>
        <time>2018-12-13T14:58:06Z</time>
      </trkpt>
      <trkpt lat="49.61649" lon="4.9593">
        <ele>186.63</ele>
        <time>2018-12-13T14:58:23Z</time>
      </trkpt>
      <trkpt lat="49.6165" lon="4.95931">
        <ele>186.63</ele>
        <time>2018-12-13T14:58:24Z</time>
      </trkpt>
      <trkpt lat="49.61667" lon="4.95941">
        <ele>184.71</ele>
        <time>2018-12-13T14:58:42Z</time>
      </trkpt>
      <trkpt lat="49.61683" lon="4.95952">
        <ele>187.11</ele>
        <time>2018-12-13T14:58:58Z</time>
      </trkpt>
      <trkpt lat="49.61685" lon="4.95955">
        <ele>187.11</ele>
        <time>2018-12-13T14:59:01Z</time>
      </trkpt>
      <trkpt lat="49.61689" lon="4.95962">
        <ele>186.63</ele>
        <time>2018-12-13T14:59:06Z</time>
      </trkpt>
      <trkpt lat="49.61704" lon="4.9598">
        <ele>189.04</ele>
        <time>2018-12-13T14:59:21Z</time>
      </trkpt>
      <trkpt lat="49.61723" lon="4.9599">
        <ele>190</ele>
        <time>2018-12-13T14:59:39Z</time>
      </trkpt>
      <trkpt lat="49.61742" lon="4.95996">
        <ele>189.52</ele>
        <time>2018-12-13T14:59:57Z</time>
      </trkpt>
      <trkpt lat="49.61763" lon="4.96002">
        <ele>190.96</ele>
        <time>2018-12-13T15:00:15Z</time>
      </trkpt>
      <trkpt lat="49.61781" lon="4.96009">
        <ele>188.56</ele>
        <time>2018-12-13T15:00:33Z</time>
      </trkpt>
      <trkpt lat="49.61799" lon="4.96015">
        <ele>186.63</ele>
        <time>2018-12-13T15:00:49Z</time>
      </trkpt>
      <trkpt lat="49.61817" lon="4.96022">
        <ele>187.59</ele>
        <time>2018-12-13T15:01:05Z</time>
      </trkpt>
      <trkpt lat="49.61834" lon="4.96025">
        <ele>184.71</ele>
        <time>2018-12-13T15:01:25Z</time>
      </trkpt>
      <trkpt lat="49.61856" lon="4.96031">
        <ele>183.27</ele>
        <time>2018-12-13T15:01:44Z</time>
      </trkpt>
      <trkpt lat="49.61876" lon="4.96032">
        <ele>181.35</ele>
        <time>2018-12-13T15:02:05Z</time>
      </trkpt>
      <trkpt lat="49.61899" lon="4.96036">
        <ele>182.31</ele>
        <time>2018-12-13T15:02:25Z</time>
      </trkpt>
      <trkpt lat="49.61918" lon="4.96036">
        <ele>181.83</ele>
        <time>2018-12-13T15:02:43Z</time>
      </trkpt>
      <trkpt lat="49.61935" lon="4.96044">
        <ele>184.71</ele>
        <time>2018-12-13T15:02:58Z</time>
      </trkpt>
      <trkpt lat="49.61961" lon="4.96048">
        <ele>189.04</ele>
        <time>2018-12-13T15:03:18Z</time>
      </trkpt>
      <trkpt lat="49.6199" lon="4.96048">
        <ele>191.92</ele>
        <time>2018-12-13T15:03:41Z</time>
      </trkpt>
      <trkpt lat="49.62013" lon="4.96049">
        <ele>193.84</ele>
        <time>2018-12-13T15:04:01Z</time>
      </trkpt>
      <trkpt lat="49.62039" lon="4.96049">
        <ele>197.21</ele>
        <time>2018-12-13T15:04:22Z</time>
      </trkpt>
      <trkpt lat="49.62053" lon="4.96048">
        <ele>198.65</ele>
        <time>2018-12-13T15:04:36Z</time>
      </trkpt>
      <trkpt lat="49.62072" lon="4.96048">
        <ele>200.57</ele>
        <time>2018-12-13T15:04:53Z</time>
      </trkpt>
      <trkpt lat="49.62087" lon="4.96036">
        <ele>196.73</ele>
        <time>2018-12-13T15:05:07Z</time>
      </trkpt>
      <trkpt lat="49.62103" lon="4.96035">
        <ele>194.32</ele>
        <time>2018-12-13T15:05:22Z</time>
      </trkpt>
      <trkpt lat="49.62123" lon="4.96029">
        <ele>192.88</ele>
        <time>2018-12-13T15:05:40Z</time>
      </trkpt>
      <trkpt lat="49.62143" lon="4.96021">
        <ele>187.11</ele>
        <time>2018-12-13T15:05:59Z</time>
      </trkpt>
      <trkpt lat="49.62164" lon="4.96017">
        <ele>190.48</ele>
        <time>2018-12-13T15:06:18Z</time>
      </trkpt>
      <trkpt lat="49.6218" lon="4.96015">
        <ele>189.04</ele>
        <time>2018-12-13T15:06:32Z</time>
      </trkpt>
      <trkpt lat="49.62196" lon="4.96011">
        <ele>191.44</ele>
        <time>2018-12-13T15:06:49Z</time>
      </trkpt>
      <trkpt lat="49.62213" lon="4.96019">
        <ele>184.23</ele>
        <time>2018-12-13T15:07:02Z</time>
      </trkpt>
      <trkpt lat="49.62226" lon="4.96006">
        <ele>179.9</ele>
        <time>2018-12-13T15:07:14Z</time>
      </trkpt>
      <trkpt lat="49.62237" lon="4.95995">
        <ele>176.54</ele>
        <time>2018-12-13T15:07:27Z</time>
      </trkpt>
      <trkpt lat="49.62241" lon="4.96002">
        <ele>175.1</ele>
        <time>2018-12-13T15:07:31Z</time>
      </trkpt>
      <trkpt lat="49.6226" lon="4.9603">
        <ele>174.14</ele>
        <time>2018-12-13T15:07:52Z</time>
      </trkpt>
      <trkpt lat="49.62273" lon="4.96049">
        <ele>172.69</ele>
        <time>2018-12-13T15:08:08Z</time>
      </trkpt>
      <trkpt lat="49.62287" lon="4.9607">
        <ele>171.25</ele>
        <time>2018-12-13T15:08:25Z</time>
      </trkpt>
      <trkpt lat="49.62292" lon="4.96076">
        <ele>168.85</ele>
        <time>2018-12-13T15:08:31Z</time>
      </trkpt>
      <trkpt lat="49.62295" lon="4.96079">
        <ele>167.41</ele>
        <time>2018-12-13T15:08:35Z</time>
      </trkpt>
      <trkpt lat="49.62297" lon="4.96081">
        <ele>167.41</ele>
        <time>2018-12-13T15:08:37Z</time>
      </trkpt>
      <trkpt lat="49.62303" lon="4.96085">
        <ele>168.37</ele>
        <time>2018-12-13T15:08:44Z</time>
      </trkpt>
      <trkpt lat="49.62329" lon="4.96089">
        <ele>173.17</ele>
        <time>2018-12-13T15:09:04Z</time>
      </trkpt>
      <trkpt lat="49.62347" lon="4.96093">
        <ele>175.58</ele>
        <time>2018-12-13T15:09:18Z</time>
      </trkpt>
      <trkpt lat="49.62356" lon="4.96104">
        <ele>182.79</ele>
        <time>2018-12-13T15:09:33Z</time>
      </trkpt>
      <trkpt lat="49.62361" lon="4.96106">
        <ele>185.67</ele>
        <time>2018-12-13T15:09:56Z</time>
      </trkpt>
      <trkpt lat="49.62369" lon="4.96111">
        <ele>186.63</ele>
        <time>2018-12-13T15:10:04Z</time>
      </trkpt>
      <trkpt lat="49.62384" lon="4.96124">
        <ele>186.63</ele>
        <time>2018-12-13T15:10:17Z</time>
      </trkpt>
      <trkpt lat="49.62399" lon="4.96129">
        <ele>186.15</ele>
        <time>2018-12-13T15:10:32Z</time>
      </trkpt>
      <trkpt lat="49.62421" lon="4.96134">
        <ele>189.52</ele>
        <time>2018-12-13T15:10:50Z</time>
      </trkpt>
      <trkpt lat="49.62442" lon="4.96139">
        <ele>192.88</ele>
        <time>2018-12-13T15:11:07Z</time>
      </trkpt>
      <trkpt lat="49.62459" lon="4.96144">
        <ele>188.08</ele>
        <time>2018-12-13T15:11:23Z</time>
      </trkpt>
      <trkpt lat="49.6248" lon="4.96149">
        <ele>181.35</ele>
        <time>2018-12-13T15:11:38Z</time>
      </trkpt>
      <trkpt lat="49.62497" lon="4.96154">
        <ele>177.5</ele>
        <time>2018-12-13T15:11:54Z</time>
      </trkpt>
      <trkpt lat="49.62516" lon="4.96159">
        <ele>179.9</ele>
        <time>2018-12-13T15:12:09Z</time>
      </trkpt>
      <trkpt lat="49.62531" lon="4.96162">
        <ele>176.06</ele>
        <time>2018-12-13T15:12:25Z</time>
      </trkpt>
      <trkpt lat="49.62548" lon="4.96169">
        <ele>175.1</ele>
        <time>2018-12-13T15:12:40Z</time>
      </trkpt>
      <trkpt lat="49.62566" lon="4.96177">
        <ele>176.06</ele>
        <time>2018-12-13T15:12:56Z</time>
      </trkpt>
      <trkpt lat="49.62591" lon="4.96186">
        <ele>178.94</ele>
        <time>2018-12-13T15:13:15Z</time>
      </trkpt>
      <trkpt lat="49.62593" lon="4.96187">
        <ele>178.94</ele>
        <time>2018-12-13T15:13:17Z</time>
      </trkpt>
      <trkpt lat="49.62597" lon="4.96186">
        <ele>178.94</ele>
        <time>2018-12-13T15:13:20Z</time>
      </trkpt>
      <trkpt lat="49.62621" lon="4.96192">
        <ele>175.58</ele>
        <time>2018-12-13T15:13:41Z</time>
      </trkpt>
      <trkpt lat="49.62646" lon="4.962">
        <ele>174.62</ele>
        <time>2018-12-13T15:14:02Z</time>
      </trkpt>
      <trkpt lat="49.62665" lon="4.96205">
        <ele>175.1</ele>
        <time>2018-12-13T15:14:18Z</time>
      </trkpt>
      <trkpt lat="49.62692" lon="4.96214">
        <ele>177.98</ele>
        <time>2018-12-13T15:14:39Z</time>
      </trkpt>
      <trkpt lat="49.6271" lon="4.96224">
        <ele>178.46</ele>
        <time>2018-12-13T15:14:56Z</time>
      </trkpt>
      <trkpt lat="49.62731" lon="4.96235">
        <ele>177.02</ele>
        <time>2018-12-13T15:15:14Z</time>
      </trkpt>
      <trkpt lat="49.62755" lon="4.96252">
        <ele>178.46</ele>
        <time>2018-12-13T15:15:34Z</time>
      </trkpt>
      <trkpt lat="49.62777" lon="4.9627">
        <ele>177.98</ele>
        <time>2018-12-13T15:15:55Z</time>
      </trkpt>
      <trkpt lat="49.62787" lon="4.96282">
        <ele>178.46</ele>
        <time>2018-12-13T15:16:06Z</time>
      </trkpt>
      <trkpt lat="49.62804" lon="4.96293">
        <ele>179.9</ele>
        <time>2018-12-13T15:16:21Z</time>
      </trkpt>
      <trkpt lat="49.62818" lon="4.963">
        <ele>181.35</ele>
        <time>2018-12-13T15:16:34Z</time>
      </trkpt>
      <trkpt lat="49.62836" lon="4.96299">
        <ele>175.58</ele>
        <time>2018-12-13T15:16:51Z</time>
      </trkpt>
      <trkpt lat="49.6285" lon="4.96303">
        <ele>173.66</ele>
        <time>2018-12-13T15:17:04Z</time>
      </trkpt>
      <trkpt lat="49.62864" lon="4.96316">
        <ele>171.73</ele>
        <time>2018-12-13T15:17:18Z</time>
      </trkpt>
      <trkpt lat="49.62879" lon="4.96327">
        <ele>172.69</ele>
        <time>2018-12-13T15:17:33Z</time>
      </trkpt>
      <trkpt lat="49.62894" lon="4.96338">
        <ele>173.17</ele>
        <time>2018-12-13T15:17:46Z</time>
      </trkpt>
      <trkpt lat="49.62907" lon="4.96348">
        <ele>173.66</ele>
        <time>2018-12-13T15:17:59Z</time>
      </trkpt>
      <trkpt lat="49.62918" lon="4.9636">
        <ele>170.77</ele>
        <time>2018-12-13T15:18:11Z</time>
      </trkpt>
      <trkpt lat="49.62933" lon="4.96369">
        <ele>170.77</ele>
        <time>2018-12-13T15:18:26Z</time>
      </trkpt>
      <trkpt lat="49.62946" lon="4.96378">
        <ele>174.14</ele>
        <time>2018-12-13T15:18:40Z</time>
      </trkpt>
      <trkpt lat="49.62962" lon="4.96392">
        <ele>173.66</ele>
        <time>2018-12-13T15:18:54Z</time>
      </trkpt>
      <trkpt lat="49.62981" lon="4.96404">
        <ele>173.17</ele>
        <time>2018-12-13T15:19:10Z</time>
      </trkpt>
      <trkpt lat="49.62982" lon="4.96406">
        <ele>171.73</ele>
        <time>2018-12-13T15:19:22Z</time>
      </trkpt>
      <trkpt lat="49.62981" lon="4.96406">
        <ele>171.25</ele>
        <time>2018-12-13T15:19:38Z</time>
      </trkpt>
      <trkpt lat="49.62983" lon="4.96407">
        <ele>171.73</ele>
        <time>2018-12-13T15:20:00Z</time>
      </trkpt>
      <trkpt lat="49.62984" lon="4.96405">
        <ele>173.66</ele>
        <time>2018-12-13T15:20:39Z</time>
      </trkpt>
      <trkpt lat="49.62984" lon="4.96407">
        <ele>174.14</ele>
        <time>2018-12-13T15:20:59Z</time>
      </trkpt>
      <trkpt lat="49.62984" lon="4.96408">
        <ele>176.54</ele>
        <time>2018-12-13T15:21:22Z</time>
      </trkpt>
      <trkpt lat="49.62984" lon="4.96408">
        <ele>177.5</ele>
        <time>2018-12-13T15:21:39Z</time>
      </trkpt>
      <trkpt lat="49.62986" lon="4.96408">
        <ele>177.02</ele>
        <time>2018-12-13T15:21:57Z</time>
      </trkpt>
      <trkpt lat="49.62997" lon="4.96416">
        <ele>173.66</ele>
        <time>2018-12-13T15:22:10Z</time>
      </trkpt>
      <trkpt lat="49.63008" lon="4.96423">
        <ele>171.73</ele>
        <time>2018-12-13T15:22:22Z</time>
      </trkpt>
      <trkpt lat="49.63025" lon="4.96435">
        <ele>171.25</ele>
        <time>2018-12-13T15:22:38Z</time>
      </trkpt>
      <trkpt lat="49.63035" lon="4.96438">
        <ele>170.29</ele>
        <time>2018-12-13T15:22:47Z</time>
      </trkpt>
      <trkpt lat="49.63054" lon="4.96449">
        <ele>170.29</ele>
        <time>2018-12-13T15:23:06Z</time>
      </trkpt>
      <trkpt lat="49.63073" lon="4.96462">
        <ele>169.81</ele>
        <time>2018-12-13T15:23:24Z</time>
      </trkpt>
      <trkpt lat="49.63077" lon="4.96468">
        <ele>168.85</ele>
        <time>2018-12-13T15:23:29Z</time>
      </trkpt>
      <trkpt lat="49.63089" lon="4.96472">
        <ele>170.77</ele>
        <time>2018-12-13T15:23:41Z</time>
      </trkpt>
      <trkpt lat="49.6311" lon="4.96487">
        <ele>170.77</ele>
        <time>2018-12-13T15:24:01Z</time>
      </trkpt>
      <trkpt lat="49.63127" lon="4.96496">
        <ele>169.81</ele>
        <time>2018-12-13T15:24:18Z</time>
      </trkpt>
      <trkpt lat="49.63145" lon="4.96508">
        <ele>169.81</ele>
        <time>2018-12-13T15:24:36Z</time>
      </trkpt>
      <trkpt lat="49.63165" lon="4.96517">
        <ele>168.37</ele>
        <time>2018-12-13T15:24:55Z</time>
      </trkpt>
      <trkpt lat="49.63181" lon="4.96528">
        <ele>167.41</ele>
        <time>2018-12-13T15:25:11Z</time>
      </trkpt>
      <trkpt lat="49.63196" lon="4.96541">
        <ele>167.41</ele>
        <time>2018-12-13T15:25:27Z</time>
      </trkpt>
      <trkpt lat="49.63211" lon="4.96549">
        <ele>166.45</ele>
        <time>2018-12-13T15:25:43Z</time>
      </trkpt>
      <trkpt lat="49.63228" lon="4.96561">
        <ele>169.33</ele>
        <time>2018-12-13T15:26:00Z</time>
      </trkpt>
      <trkpt lat="49.63246" lon="4.96573">
        <ele>170.29</ele>
        <time>2018-12-13T15:26:16Z</time>
      </trkpt>
      <trkpt lat="49.63259" lon="4.96587">
        <ele>167.89</ele>
        <time>2018-12-13T15:26:33Z</time>
      </trkpt>
      <trkpt lat="49.6327" lon="4.96594">
        <ele>165.48</ele>
        <time>2018-12-13T15:26:48Z</time>
      </trkpt>
      <trkpt lat="49.6328" lon="4.96605">
        <ele>171.73</ele>
        <time>2018-12-13T15:27:02Z</time>
      </trkpt>
      <trkpt lat="49.63286" lon="4.96616">
        <ele>175.1</ele>
        <time>2018-12-13T15:27:16Z</time>
      </trkpt>
      <trkpt lat="49.63291" lon="4.96633">
        <ele>174.14</ele>
        <time>2018-12-13T15:27:30Z</time>
      </trkpt>
      <trkpt lat="49.63293" lon="4.9664">
        <ele>174.14</ele>
        <time>2018-12-13T15:27:35Z</time>
      </trkpt>
      <trkpt lat="49.633" lon="4.9666">
        <ele>172.21</ele>
        <time>2018-12-13T15:27:52Z</time>
      </trkpt>
      <trkpt lat="49.63303" lon="4.96665">
        <ele>171.73</ele>
        <time>2018-12-13T15:28:09Z</time>
      </trkpt>
      <trkpt lat="49.63308" lon="4.9668">
        <ele>167.41</ele>
        <time>2018-12-13T15:28:20Z</time>
      </trkpt>
      <trkpt lat="49.6332" lon="4.96696">
        <ele>166.45</ele>
        <time>2018-12-13T15:28:36Z</time>
      </trkpt>
      <trkpt lat="49.63329" lon="4.96718">
        <ele>166.45</ele>
        <time>2018-12-13T15:28:51Z</time>
      </trkpt>
      <trkpt lat="49.63333" lon="4.96741">
        <ele>165.48</ele>
        <time>2018-12-13T15:29:07Z</time>
      </trkpt>
      <trkpt lat="49.63336" lon="4.96762">
        <ele>162.12</ele>
        <time>2018-12-13T15:29:22Z</time>
      </trkpt>
      <trkpt lat="49.63337" lon="4.96777">
        <ele>160.68</ele>
        <time>2018-12-13T15:29:31Z</time>
      </trkpt>
      <trkpt lat="49.63344" lon="4.96804">
        <ele>161.64</ele>
        <time>2018-12-13T15:29:49Z</time>
      </trkpt>
      <trkpt lat="49.63356" lon="4.96819">
        <ele>162.6</ele>
        <time>2018-12-13T15:30:05Z</time>
      </trkpt>
      <trkpt lat="49.63366" lon="4.96829">
        <ele>162.12</ele>
        <time>2018-12-13T15:30:19Z</time>
      </trkpt>
      <trkpt lat="49.63375" lon="4.96844">
        <ele>165.96</ele>
        <time>2018-12-13T15:30:36Z</time>
      </trkpt>
      <trkpt lat="49.63386" lon="4.96858">
        <ele>166.45</ele>
        <time>2018-12-13T15:30:52Z</time>
      </trkpt>
      <trkpt lat="49.63401" lon="4.96874">
        <ele>167.89</ele>
        <time>2018-12-13T15:31:10Z</time>
      </trkpt>
      <trkpt lat="49.6341" lon="4.96878">
        <ele>170.77</ele>
        <time>2018-12-13T15:31:26Z</time>
      </trkpt>
      <trkpt lat="49.6341" lon="4.96879">
        <ele>171.73</ele>
        <time>2018-12-13T15:31:52Z</time>
      </trkpt>
      <trkpt lat="49.63411" lon="4.9688">
        <ele>171.25</ele>
        <time>2018-12-13T15:32:16Z</time>
      </trkpt>
      <trkpt lat="49.63417" lon="4.9689">
        <ele>171.73</ele>
        <time>2018-12-13T15:32:31Z</time>
      </trkpt>
      <trkpt lat="49.6343" lon="4.96909">
        <ele>171.25</ele>
        <time>2018-12-13T15:32:49Z</time>
      </trkpt>
      <trkpt lat="49.63442" lon="4.96925">
        <ele>170.29</ele>
        <time>2018-12-13T15:33:04Z</time>
      </trkpt>
      <trkpt lat="49.6345" lon="4.96937">
        <ele>169.81</ele>
        <time>2018-12-13T15:33:15Z</time>
      </trkpt>
      <trkpt lat="49.63459" lon="4.9695">
        <ele>169.33</ele>
        <time>2018-12-13T15:33:26Z</time>
      </trkpt>
      <trkpt lat="49.63467" lon="4.96963">
        <ele>169.33</ele>
        <time>2018-12-13T15:33:40Z</time>
      </trkpt>
      <trkpt lat="49.63468" lon="4.96976">
        <ele>169.33</ele>
        <time>2018-12-13T15:34:00Z</time>
      </trkpt>
      <trkpt lat="49.63471" lon="4.97003">
        <ele>170.77</ele>
        <time>2018-12-13T15:34:16Z</time>
      </trkpt>
      <trkpt lat="49.63471" lon="4.97006">
        <ele>171.25</ele>
        <time>2018-12-13T15:34:18Z</time>
      </trkpt>
      <trkpt lat="49.63475" lon="4.97023">
        <ele>173.17</ele>
        <time>2018-12-13T15:34:33Z</time>
      </trkpt>
      <trkpt lat="49.63482" lon="4.97043">
        <ele>175.58</ele>
        <time>2018-12-13T15:34:48Z</time>
      </trkpt>
      <trkpt lat="49.63489" lon="4.97066">
        <ele>176.06</ele>
        <time>2018-12-13T15:35:05Z</time>
      </trkpt>
      <trkpt lat="49.63494" lon="4.97091">
        <ele>175.58</ele>
        <time>2018-12-13T15:35:21Z</time>
      </trkpt>
      <trkpt lat="49.63501" lon="4.97112">
        <ele>173.66</ele>
        <time>2018-12-13T15:35:37Z</time>
      </trkpt>
      <trkpt lat="49.63507" lon="4.97134">
        <ele>174.14</ele>
        <time>2018-12-13T15:35:53Z</time>
      </trkpt>
      <trkpt lat="49.63514" lon="4.97157">
        <ele>173.66</ele>
        <time>2018-12-13T15:36:09Z</time>
      </trkpt>
      <trkpt lat="49.63518" lon="4.97175">
        <ele>174.62</ele>
        <time>2018-12-13T15:36:24Z</time>
      </trkpt>
      <trkpt lat="49.63519" lon="4.97181">
        <ele>174.14</ele>
        <time>2018-12-13T15:36:39Z</time>
      </trkpt>
      <trkpt lat="49.63525" lon="4.97203">
        <ele>174.14</ele>
        <time>2018-12-13T15:36:56Z</time>
      </trkpt>
      <trkpt lat="49.6353" lon="4.97225">
        <ele>173.66</ele>
        <time>2018-12-13T15:37:11Z</time>
      </trkpt>
      <trkpt lat="49.6353" lon="4.97227">
        <ele>174.14</ele>
        <time>2018-12-13T15:37:13Z</time>
      </trkpt>
      <trkpt lat="49.63531" lon="4.97232">
        <ele>174.62</ele>
        <time>2018-12-13T15:37:16Z</time>
      </trkpt>
      <trkpt lat="49.63536" lon="4.97244">
        <ele>174.62</ele>
        <time>2018-12-13T15:37:30Z</time>
      </trkpt>
      <trkpt lat="49.63542" lon="4.97272">
        <ele>176.06</ele>
        <time>2018-12-13T15:37:46Z</time>
      </trkpt>
      <trkpt lat="49.63551" lon="4.97294">
        <ele>177.98</ele>
        <time>2018-12-13T15:38:04Z</time>
      </trkpt>
      <trkpt lat="49.63558" lon="4.97318">
        <ele>177.5</ele>
        <time>2018-12-13T15:38:19Z</time>
      </trkpt>
      <trkpt lat="49.63569" lon="4.97341">
        <ele>176.54</ele>
        <time>2018-12-13T15:38:37Z</time>
      </trkpt>
      <trkpt lat="49.63584" lon="4.97358">
        <ele>176.54</ele>
        <time>2018-12-13T15:38:54Z</time>
      </trkpt>
      <trkpt lat="49.63598" lon="4.97374">
        <ele>178.94</ele>
        <time>2018-12-13T15:39:11Z</time>
      </trkpt>
      <trkpt lat="49.63615" lon="4.97397">
        <ele>179.42</ele>
        <time>2018-12-13T15:39:30Z</time>
      </trkpt>
      <trkpt lat="49.63634" lon="4.97415">
        <ele>180.38</ele>
        <time>2018-12-13T15:39:50Z</time>
      </trkpt>
      <trkpt lat="49.63641" lon="4.97422">
        <ele>180.87</ele>
        <time>2018-12-13T15:39:57Z</time>
      </trkpt>
      <trkpt lat="49.63648" lon="4.9744">
        <ele>182.79</ele>
        <time>2018-12-13T15:40:12Z</time>
      </trkpt>
      <trkpt lat="49.63644" lon="4.97468">
        <ele>181.35</ele>
        <time>2018-12-13T15:40:30Z</time>
      </trkpt>
      <trkpt lat="49.6364" lon="4.97501">
        <ele>179.42</ele>
        <time>2018-12-13T15:40:49Z</time>
      </trkpt>
      <trkpt lat="49.63641" lon="4.97532">
        <ele>176.06</ele>
        <time>2018-12-13T15:41:09Z</time>
      </trkpt>
      <trkpt lat="49.63644" lon="4.97555">
        <ele>175.1</ele>
        <time>2018-12-13T15:41:23Z</time>
      </trkpt>
      <trkpt lat="49.63644" lon="4.9756">
        <ele>174.14</ele>
        <time>2018-12-13T15:41:26Z</time>
      </trkpt>
      <trkpt lat="49.63645" lon="4.97584">
        <ele>169.81</ele>
        <time>2018-12-13T15:41:42Z</time>
      </trkpt>
      <trkpt lat="49.63647" lon="4.97592">
        <ele>168.37</ele>
        <time>2018-12-13T15:41:49Z</time>
      </trkpt>
      <trkpt lat="49.63643" lon="4.97616">
        <ele>165.96</ele>
        <time>2018-12-13T15:42:05Z</time>
      </trkpt>
      <trkpt lat="49.63642" lon="4.97621">
        <ele>164.52</ele>
        <time>2018-12-13T15:42:09Z</time>
      </trkpt>
      <trkpt lat="49.63633" lon="4.97641">
        <ele>161.64</ele>
        <time>2018-12-13T15:42:26Z</time>
      </trkpt>
      <trkpt lat="49.63623" lon="4.97654">
        <ele>161.64</ele>
        <time>2018-12-13T15:42:39Z</time>
      </trkpt>
      <trkpt lat="49.63616" lon="4.97659">
        <ele>161.16</ele>
        <time>2018-12-13T15:42:47Z</time>
      </trkpt>
      <trkpt lat="49.63611" lon="4.97668">
        <ele>159.72</ele>
        <time>2018-12-13T15:42:54Z</time>
      </trkpt>
      <trkpt lat="49.63592" lon="4.97679">
        <ele>157.79</ele>
        <time>2018-12-13T15:43:14Z</time>
      </trkpt>
      <trkpt lat="49.6358" lon="4.97694">
        <ele>157.79</ele>
        <time>2018-12-13T15:43:30Z</time>
      </trkpt>
      <trkpt lat="49.63571" lon="4.97705">
        <ele>158.27</ele>
        <time>2018-12-13T15:43:43Z</time>
      </trkpt>
      <trkpt lat="49.63557" lon="4.97724">
        <ele>173.17</ele>
        <time>2018-12-13T15:44:01Z</time>
      </trkpt>
      <trkpt lat="49.63546" lon="4.97752">
        <ele>175.1</ele>
        <time>2018-12-13T15:44:18Z</time>
      </trkpt>
      <trkpt lat="49.63533" lon="4.97782">
        <ele>174.14</ele>
        <time>2018-12-13T15:44:38Z</time>
      </trkpt>
      <trkpt lat="49.63517" lon="4.978">
        <ele>174.14</ele>
        <time>2018-12-13T15:44:56Z</time>
      </trkpt>
      <trkpt lat="49.63504" lon="4.97814">
        <ele>173.66</ele>
        <time>2018-12-13T15:45:11Z</time>
      </trkpt>
      <trkpt lat="49.63491" lon="4.9783">
        <ele>175.1</ele>
        <time>2018-12-13T15:45:26Z</time>
      </trkpt>
      <trkpt lat="49.63488" lon="4.97834">
        <ele>175.58</ele>
        <time>2018-12-13T15:45:30Z</time>
      </trkpt>
      <trkpt lat="49.63482" lon="4.97851">
        <ele>176.06</ele>
        <time>2018-12-13T15:45:41Z</time>
      </trkpt>
      <trkpt lat="49.63469" lon="4.97869">
        <ele>180.38</ele>
        <time>2018-12-13T15:45:56Z</time>
      </trkpt>
      <trkpt lat="49.63454" lon="4.97886">
        <ele>183.27</ele>
        <time>2018-12-13T15:46:13Z</time>
      </trkpt>
      <trkpt lat="49.63443" lon="4.97898">
        <ele>183.27</ele>
        <time>2018-12-13T15:46:27Z</time>
      </trkpt>
      <trkpt lat="49.63442" lon="4.97899">
        <ele>183.27</ele>
        <time>2018-12-13T15:46:28Z</time>
      </trkpt>
      <trkpt lat="49.63424" lon="4.97904">
        <ele>184.23</ele>
        <time>2018-12-13T15:46:44Z</time>
      </trkpt>
      <trkpt lat="49.63423" lon="4.97905">
        <ele>184.71</ele>
        <time>2018-12-13T15:46:46Z</time>
      </trkpt>
      <trkpt lat="49.63419" lon="4.97908">
        <ele>184.71</ele>
        <time>2018-12-13T15:46:50Z</time>
      </trkpt>
      <trkpt lat="49.63414" lon="4.97914">
        <ele>183.75</ele>
        <time>2018-12-13T15:46:56Z</time>
      </trkpt>
      <trkpt lat="49.63401" lon="4.97926">
        <ele>185.19</ele>
        <time>2018-12-13T15:47:10Z</time>
      </trkpt>
      <trkpt lat="49.63388" lon="4.97934">
        <ele>191.92</ele>
        <time>2018-12-13T15:47:24Z</time>
      </trkpt>
      <trkpt lat="49.6339" lon="4.97949">
        <ele>190.96</ele>
        <time>2018-12-13T15:47:36Z</time>
      </trkpt>
      <trkpt lat="49.63394" lon="4.97977">
        <ele>184.23</ele>
        <time>2018-12-13T15:47:52Z</time>
      </trkpt>
      <trkpt lat="49.634" lon="4.97993">
        <ele>180.87</ele>
        <time>2018-12-13T15:48:04Z</time>
      </trkpt>
      <trkpt lat="49.6341" lon="4.98012">
        <ele>179.9</ele>
        <time>2018-12-13T15:48:20Z</time>
      </trkpt>
      <trkpt lat="49.63422" lon="4.98035">
        <ele>179.42</ele>
        <time>2018-12-13T15:48:38Z</time>
      </trkpt>
      <trkpt lat="49.6344" lon="4.98049">
        <ele>178.94</ele>
        <time>2018-12-13T15:48:57Z</time>
      </trkpt>
      <trkpt lat="49.63448" lon="4.98051">
        <ele>176.54</ele>
        <time>2018-12-13T15:49:10Z</time>
      </trkpt>
      <trkpt lat="49.63449" lon="4.98053">
        <ele>176.54</ele>
        <time>2018-12-13T15:49:29Z</time>
      </trkpt>
    </trkseg>
  </trk>
</gpx>